<?xml version="1.0" encoding="UTF-8" standalone="no" ?>
<gpx xmlns="http://www.topografix.com/GPX/1/1" xmlns:xsi="http://www.w3.org/2001/XMLSchema-instance" xsi:schemaLocation="http://www.topografix.com/GPX/1/1 http://www.topografix.com/GPX/1/1/gpx.xsd" version="1.1" creator="VisuGPX - https://www.visugpx.com">
  <metadata>
    <name>Bourg de Sirod</name>
  </metadata>
  <trk>
    <name><![CDATA[Bourg de Sirod_1]]></name>
    <extensions>
      <line xmlns="http://www.topografix.com/GPX/gpx_style/0/2">
        <color>0000FF</color>
        <width>4</width>
      </line>
    </extensions>
    <trkseg>
      <trkpt lat="46.72583" lon="5.9583">
        <ele>576.8</ele>
        <time>2022-01-01T12:41:10Z</time>
      </trkpt>
      <trkpt lat="46.72579" lon="5.95826">
        <ele>577.1</ele>
        <time>2022-01-01T12:41:14Z</time>
      </trkpt>
      <trkpt lat="46.72575" lon="5.95822">
        <ele>577.4</ele>
        <time>2022-01-01T12:41:18Z</time>
      </trkpt>
      <trkpt lat="46.7257" lon="5.95817">
        <ele>578</ele>
        <time>2022-01-01T12:41:22Z</time>
      </trkpt>
      <trkpt lat="46.72566" lon="5.95814">
        <ele>579</ele>
        <time>2022-01-01T12:41:26Z</time>
      </trkpt>
      <trkpt lat="46.72561" lon="5.95811">
        <ele>580.2</ele>
        <time>2022-01-01T12:41:33Z</time>
      </trkpt>
      <trkpt lat="46.72557" lon="5.95807">
        <ele>581.3</ele>
        <time>2022-01-01T12:41:38Z</time>
      </trkpt>
      <trkpt lat="46.72552" lon="5.95805">
        <ele>582</ele>
        <time>2022-01-01T12:41:43Z</time>
      </trkpt>
      <trkpt lat="46.72546" lon="5.95804">
        <ele>582.1</ele>
        <time>2022-01-01T12:41:47Z</time>
      </trkpt>
      <trkpt lat="46.72541" lon="5.95804">
        <ele>581.8</ele>
        <time>2022-01-01T12:41:51Z</time>
      </trkpt>
      <trkpt lat="46.72537" lon="5.95803">
        <ele>580.6</ele>
        <time>2022-01-01T12:41:57Z</time>
      </trkpt>
      <trkpt lat="46.72532" lon="5.95802">
        <ele>579.7</ele>
        <time>2022-01-01T12:42:03Z</time>
      </trkpt>
      <trkpt lat="46.7253" lon="5.95796">
        <ele>578.9</ele>
        <time>2022-01-01T12:42:12Z</time>
      </trkpt>
      <trkpt lat="46.72529" lon="5.95789">
        <ele>576.7</ele>
        <time>2022-01-01T12:42:35Z</time>
      </trkpt>
      <trkpt lat="46.72525" lon="5.95784">
        <ele>575.9</ele>
        <time>2022-01-01T12:42:40Z</time>
      </trkpt>
      <trkpt lat="46.72523" lon="5.95778">
        <ele>574.9</ele>
        <time>2022-01-01T12:42:55Z</time>
      </trkpt>
      <trkpt lat="46.72526" lon="5.95773">
        <ele>573.8</ele>
        <time>2022-01-01T12:43:23Z</time>
      </trkpt>
      <trkpt lat="46.7253" lon="5.95767">
        <ele>571.8</ele>
        <time>2022-01-01T12:43:48Z</time>
      </trkpt>
      <trkpt lat="46.72533" lon="5.95762">
        <ele>570.5</ele>
        <time>2022-01-01T12:43:56Z</time>
      </trkpt>
      <trkpt lat="46.72535" lon="5.95756">
        <ele>569.7</ele>
        <time>2022-01-01T12:44:05Z</time>
      </trkpt>
      <trkpt lat="46.72536" lon="5.95749">
        <ele>568.8</ele>
        <time>2022-01-01T12:44:19Z</time>
      </trkpt>
      <trkpt lat="46.72538" lon="5.95743">
        <ele>567.5</ele>
        <time>2022-01-01T12:44:34Z</time>
      </trkpt>
      <trkpt lat="46.72541" lon="5.95737">
        <ele>566.3</ele>
        <time>2022-01-01T12:44:38Z</time>
      </trkpt>
      <trkpt lat="46.72542" lon="5.95729">
        <ele>564.9</ele>
        <time>2022-01-01T12:44:58Z</time>
      </trkpt>
      <trkpt lat="46.72544" lon="5.95722">
        <ele>565.3</ele>
        <time>2022-01-01T12:45:02Z</time>
      </trkpt>
      <trkpt lat="46.72542" lon="5.95714">
        <ele>566.6</ele>
        <time>2022-01-01T12:45:20Z</time>
      </trkpt>
      <trkpt lat="46.72539" lon="5.95709">
        <ele>567.6</ele>
        <time>2022-01-01T12:45:26Z</time>
      </trkpt>
      <trkpt lat="46.72539" lon="5.95702">
        <ele>568</ele>
        <time>2022-01-01T12:45:34Z</time>
      </trkpt>
      <trkpt lat="46.72535" lon="5.95698">
        <ele>567</ele>
        <time>2022-01-01T12:46:08Z</time>
      </trkpt>
      <trkpt lat="46.7253" lon="5.95692">
        <ele>564.9</ele>
        <time>2022-01-01T12:46:31Z</time>
      </trkpt>
      <trkpt lat="46.72526" lon="5.95687">
        <ele>563.8</ele>
        <time>2022-01-01T12:46:35Z</time>
      </trkpt>
      <trkpt lat="46.72521" lon="5.95688">
        <ele>562.5</ele>
        <time>2022-01-01T12:46:42Z</time>
      </trkpt>
      <trkpt lat="46.72517" lon="5.95692">
        <ele>561.2</ele>
        <time>2022-01-01T12:46:49Z</time>
      </trkpt>
      <trkpt lat="46.72512" lon="5.95693">
        <ele>560</ele>
        <time>2022-01-01T12:46:57Z</time>
      </trkpt>
      <trkpt lat="46.72508" lon="5.95695">
        <ele>558.8</ele>
        <time>2022-01-01T12:47:05Z</time>
      </trkpt>
      <trkpt lat="46.72503" lon="5.95695">
        <ele>556.7</ele>
        <time>2022-01-01T12:47:14Z</time>
      </trkpt>
      <trkpt lat="46.72499" lon="5.9569">
        <ele>554.7</ele>
        <time>2022-01-01T12:47:23Z</time>
      </trkpt>
      <trkpt lat="46.72497" lon="5.95684">
        <ele>552.9</ele>
        <time>2022-01-01T12:47:32Z</time>
      </trkpt>
      <trkpt lat="46.72495" lon="5.95677">
        <ele>550.6</ele>
        <time>2022-01-01T12:47:39Z</time>
      </trkpt>
      <trkpt lat="46.72493" lon="5.95671">
        <ele>547.7</ele>
        <time>2022-01-01T12:47:46Z</time>
      </trkpt>
      <trkpt lat="46.72492" lon="5.95665">
        <ele>545.1</ele>
        <time>2022-01-01T12:47:53Z</time>
      </trkpt>
      <trkpt lat="46.72489" lon="5.95659">
        <ele>542.8</ele>
        <time>2022-01-01T12:48:00Z</time>
      </trkpt>
      <trkpt lat="46.72486" lon="5.95653">
        <ele>541.3</ele>
        <time>2022-01-01T12:48:07Z</time>
      </trkpt>
      <trkpt lat="46.72485" lon="5.95647">
        <ele>540.2</ele>
        <time>2022-01-01T12:48:15Z</time>
      </trkpt>
      <trkpt lat="46.72482" lon="5.9564">
        <ele>539.5</ele>
        <time>2022-01-01T12:48:22Z</time>
      </trkpt>
      <trkpt lat="46.7248" lon="5.95633">
        <ele>538.6</ele>
        <time>2022-01-01T12:48:28Z</time>
      </trkpt>
      <trkpt lat="46.72476" lon="5.95628">
        <ele>537.6</ele>
        <time>2022-01-01T12:48:34Z</time>
      </trkpt>
      <trkpt lat="46.72472" lon="5.95624">
        <ele>536.7</ele>
        <time>2022-01-01T12:48:41Z</time>
      </trkpt>
      <trkpt lat="46.72467" lon="5.95627">
        <ele>536.7</ele>
        <time>2022-01-01T12:48:56Z</time>
      </trkpt>
      <trkpt lat="46.72464" lon="5.95631">
        <ele>536.6</ele>
        <time>2022-01-01T12:49:00Z</time>
      </trkpt>
      <trkpt lat="46.7246" lon="5.95635">
        <ele>536.3</ele>
        <time>2022-01-01T12:49:04Z</time>
      </trkpt>
      <trkpt lat="46.72455" lon="5.95633">
        <ele>535</ele>
        <time>2022-01-01T12:49:16Z</time>
      </trkpt>
      <trkpt lat="46.72461" lon="5.95632">
        <ele>537.8</ele>
        <time>2022-01-01T12:50:08Z</time>
      </trkpt>
      <trkpt lat="46.72463" lon="5.95641">
        <ele>543.7</ele>
        <time>2022-01-01T12:50:19Z</time>
      </trkpt>
      <trkpt lat="46.72458" lon="5.95641">
        <ele>545.4</ele>
        <time>2022-01-01T12:50:35Z</time>
      </trkpt>
      <trkpt lat="46.72456" lon="5.95634">
        <ele>543.7</ele>
        <time>2022-01-01T12:50:39Z</time>
      </trkpt>
      <trkpt lat="46.72455" lon="5.95627">
        <ele>541.3</ele>
        <time>2022-01-01T12:50:43Z</time>
      </trkpt>
      <trkpt lat="46.72453" lon="5.9562">
        <ele>538.2</ele>
        <time>2022-01-01T12:50:50Z</time>
      </trkpt>
      <trkpt lat="46.72449" lon="5.9562">
        <ele>536.2</ele>
        <time>2022-01-01T12:51:05Z</time>
      </trkpt>
      <trkpt lat="46.72445" lon="5.95624">
        <ele>535.5</ele>
        <time>2022-01-01T12:51:11Z</time>
      </trkpt>
      <trkpt lat="46.72441" lon="5.9563">
        <ele>535.3</ele>
        <time>2022-01-01T12:51:16Z</time>
      </trkpt>
      <trkpt lat="46.72438" lon="5.95635">
        <ele>535</ele>
        <time>2022-01-01T12:51:21Z</time>
      </trkpt>
      <trkpt lat="46.72435" lon="5.95641">
        <ele>534.8</ele>
        <time>2022-01-01T12:51:26Z</time>
      </trkpt>
      <trkpt lat="46.72432" lon="5.95646">
        <ele>534.8</ele>
        <time>2022-01-01T12:51:30Z</time>
      </trkpt>
      <trkpt lat="46.72429" lon="5.95652">
        <ele>534.7</ele>
        <time>2022-01-01T12:51:36Z</time>
      </trkpt>
      <trkpt lat="46.72425" lon="5.95658">
        <ele>534.7</ele>
        <time>2022-01-01T12:51:41Z</time>
      </trkpt>
      <trkpt lat="46.72421" lon="5.95661">
        <ele>534.6</ele>
        <time>2022-01-01T12:51:48Z</time>
      </trkpt>
      <trkpt lat="46.72417" lon="5.95666">
        <ele>534.8</ele>
        <time>2022-01-01T12:51:54Z</time>
      </trkpt>
      <trkpt lat="46.72412" lon="5.95671">
        <ele>534.3</ele>
        <time>2022-01-01T12:51:59Z</time>
      </trkpt>
      <trkpt lat="46.72407" lon="5.95671">
        <ele>533.4</ele>
        <time>2022-01-01T12:52:04Z</time>
      </trkpt>
      <trkpt lat="46.72403" lon="5.9567">
        <ele>532.6</ele>
        <time>2022-01-01T12:52:08Z</time>
      </trkpt>
      <trkpt lat="46.72397" lon="5.9567">
        <ele>531.8</ele>
        <time>2022-01-01T12:52:13Z</time>
      </trkpt>
      <trkpt lat="46.72392" lon="5.9567">
        <ele>531.3</ele>
        <time>2022-01-01T12:52:17Z</time>
      </trkpt>
      <trkpt lat="46.72388" lon="5.9567">
        <ele>531.5</ele>
        <time>2022-01-01T12:52:21Z</time>
      </trkpt>
      <trkpt lat="46.72383" lon="5.9567">
        <ele>532.2</ele>
        <time>2022-01-01T12:52:25Z</time>
      </trkpt>
      <trkpt lat="46.72378" lon="5.95668">
        <ele>533.1</ele>
        <time>2022-01-01T12:52:29Z</time>
      </trkpt>
      <trkpt lat="46.72374" lon="5.95664">
        <ele>534.1</ele>
        <time>2022-01-01T12:52:34Z</time>
      </trkpt>
      <trkpt lat="46.72369" lon="5.95661">
        <ele>534.9</ele>
        <time>2022-01-01T12:52:39Z</time>
      </trkpt>
      <trkpt lat="46.72365" lon="5.95661">
        <ele>535.1</ele>
        <time>2022-01-01T12:52:43Z</time>
      </trkpt>
      <trkpt lat="46.7236" lon="5.95657">
        <ele>535</ele>
        <time>2022-01-01T12:52:48Z</time>
      </trkpt>
      <trkpt lat="46.72357" lon="5.95652">
        <ele>535.2</ele>
        <time>2022-01-01T12:52:54Z</time>
      </trkpt>
      <trkpt lat="46.72354" lon="5.95646">
        <ele>535.1</ele>
        <time>2022-01-01T12:53:00Z</time>
      </trkpt>
      <trkpt lat="46.72351" lon="5.95641">
        <ele>535</ele>
        <time>2022-01-01T12:53:05Z</time>
      </trkpt>
      <trkpt lat="46.72348" lon="5.95634">
        <ele>534.5</ele>
        <time>2022-01-01T12:53:11Z</time>
      </trkpt>
      <trkpt lat="46.72345" lon="5.95629">
        <ele>534</ele>
        <time>2022-01-01T12:53:17Z</time>
      </trkpt>
      <trkpt lat="46.72342" lon="5.95623">
        <ele>533.8</ele>
        <time>2022-01-01T12:53:23Z</time>
      </trkpt>
      <trkpt lat="46.72339" lon="5.95619">
        <ele>534</ele>
        <time>2022-01-01T12:53:27Z</time>
      </trkpt>
      <trkpt lat="46.72334" lon="5.95615">
        <ele>534.4</ele>
        <time>2022-01-01T12:53:31Z</time>
      </trkpt>
      <trkpt lat="46.7233" lon="5.95612">
        <ele>534.6</ele>
        <time>2022-01-01T12:53:36Z</time>
      </trkpt>
      <trkpt lat="46.72325" lon="5.9561">
        <ele>534.7</ele>
        <time>2022-01-01T12:53:41Z</time>
      </trkpt>
      <trkpt lat="46.72321" lon="5.95608">
        <ele>534.7</ele>
        <time>2022-01-01T12:53:46Z</time>
      </trkpt>
      <trkpt lat="46.72315" lon="5.95605">
        <ele>534.9</ele>
        <time>2022-01-01T12:53:50Z</time>
      </trkpt>
      <trkpt lat="46.7231" lon="5.95603">
        <ele>535.4</ele>
        <time>2022-01-01T12:53:55Z</time>
      </trkpt>
      <trkpt lat="46.72305" lon="5.95599">
        <ele>535.9</ele>
        <time>2022-01-01T12:54:01Z</time>
      </trkpt>
      <trkpt lat="46.72301" lon="5.95595">
        <ele>536.2</ele>
        <time>2022-01-01T12:54:06Z</time>
      </trkpt>
      <trkpt lat="46.72299" lon="5.9559">
        <ele>536.7</ele>
        <time>2022-01-01T12:54:12Z</time>
      </trkpt>
      <trkpt lat="46.72295" lon="5.95585">
        <ele>537.6</ele>
        <time>2022-01-01T12:54:18Z</time>
      </trkpt>
      <trkpt lat="46.72291" lon="5.95581">
        <ele>538.4</ele>
        <time>2022-01-01T12:54:25Z</time>
      </trkpt>
      <trkpt lat="46.72286" lon="5.95579">
        <ele>539</ele>
        <time>2022-01-01T12:54:33Z</time>
      </trkpt>
      <trkpt lat="46.72283" lon="5.95574">
        <ele>539.4</ele>
        <time>2022-01-01T12:54:36Z</time>
      </trkpt>
      <trkpt lat="46.72278" lon="5.95574">
        <ele>540.3</ele>
        <time>2022-01-01T12:54:41Z</time>
      </trkpt>
      <trkpt lat="46.7228" lon="5.9558">
        <ele>541.1</ele>
        <time>2022-01-01T12:54:48Z</time>
      </trkpt>
      <trkpt lat="46.72282" lon="5.95587">
        <ele>541.2</ele>
        <time>2022-01-01T12:54:53Z</time>
      </trkpt>
      <trkpt lat="46.72284" lon="5.95593">
        <ele>541.2</ele>
        <time>2022-01-01T12:54:57Z</time>
      </trkpt>
      <trkpt lat="46.72288" lon="5.95598">
        <ele>542.1</ele>
        <time>2022-01-01T12:55:02Z</time>
      </trkpt>
      <trkpt lat="46.72291" lon="5.95602">
        <ele>543.8</ele>
        <time>2022-01-01T12:55:07Z</time>
      </trkpt>
      <trkpt lat="46.72293" lon="5.95609">
        <ele>544.9</ele>
        <time>2022-01-01T12:55:13Z</time>
      </trkpt>
      <trkpt lat="46.72296" lon="5.95615">
        <ele>545.2</ele>
        <time>2022-01-01T12:55:19Z</time>
      </trkpt>
      <trkpt lat="46.72298" lon="5.9562">
        <ele>545.7</ele>
        <time>2022-01-01T12:55:25Z</time>
      </trkpt>
      <trkpt lat="46.72301" lon="5.95626">
        <ele>547.3</ele>
        <time>2022-01-01T12:55:31Z</time>
      </trkpt>
      <trkpt lat="46.72303" lon="5.95632">
        <ele>550.2</ele>
        <time>2022-01-01T12:55:37Z</time>
      </trkpt>
      <trkpt lat="46.72307" lon="5.95637">
        <ele>552.9</ele>
        <time>2022-01-01T12:55:44Z</time>
      </trkpt>
      <trkpt lat="46.7231" lon="5.95642">
        <ele>554.5</ele>
        <time>2022-01-01T12:55:53Z</time>
      </trkpt>
      <trkpt lat="46.72314" lon="5.95646">
        <ele>554.9</ele>
        <time>2022-01-01T12:56:00Z</time>
      </trkpt>
      <trkpt lat="46.72314" lon="5.95653">
        <ele>554.1</ele>
        <time>2022-01-01T12:56:08Z</time>
      </trkpt>
      <trkpt lat="46.72316" lon="5.9566">
        <ele>553.7</ele>
        <time>2022-01-01T12:56:16Z</time>
      </trkpt>
      <trkpt lat="46.72317" lon="5.95668">
        <ele>554</ele>
        <time>2022-01-01T12:56:24Z</time>
      </trkpt>
      <trkpt lat="46.72316" lon="5.95675">
        <ele>554.9</ele>
        <time>2022-01-01T12:56:31Z</time>
      </trkpt>
      <trkpt lat="46.72315" lon="5.95683">
        <ele>555.9</ele>
        <time>2022-01-01T12:56:37Z</time>
      </trkpt>
      <trkpt lat="46.72315" lon="5.95689">
        <ele>556.3</ele>
        <time>2022-01-01T12:56:42Z</time>
      </trkpt>
      <trkpt lat="46.72317" lon="5.95697">
        <ele>556.1</ele>
        <time>2022-01-01T12:56:47Z</time>
      </trkpt>
      <trkpt lat="46.72319" lon="5.95704">
        <ele>556.4</ele>
        <time>2022-01-01T12:56:52Z</time>
      </trkpt>
      <trkpt lat="46.72322" lon="5.95709">
        <ele>555.8</ele>
        <time>2022-01-01T12:56:57Z</time>
      </trkpt>
      <trkpt lat="46.72326" lon="5.95713">
        <ele>555.6</ele>
        <time>2022-01-01T12:57:02Z</time>
      </trkpt>
      <trkpt lat="46.7233" lon="5.95717">
        <ele>556</ele>
        <time>2022-01-01T12:57:08Z</time>
      </trkpt>
      <trkpt lat="46.72335" lon="5.95717">
        <ele>556.7</ele>
        <time>2022-01-01T12:57:14Z</time>
      </trkpt>
      <trkpt lat="46.72341" lon="5.9572">
        <ele>557.6</ele>
        <time>2022-01-01T12:57:18Z</time>
      </trkpt>
      <trkpt lat="46.72345" lon="5.95722">
        <ele>558.8</ele>
        <time>2022-01-01T12:57:21Z</time>
      </trkpt>
      <trkpt lat="46.7235" lon="5.95725">
        <ele>560.8</ele>
        <time>2022-01-01T12:57:25Z</time>
      </trkpt>
      <trkpt lat="46.72354" lon="5.95728">
        <ele>563.9</ele>
        <time>2022-01-01T12:57:32Z</time>
      </trkpt>
      <trkpt lat="46.72358" lon="5.95732">
        <ele>565.3</ele>
        <time>2022-01-01T12:57:39Z</time>
      </trkpt>
      <trkpt lat="46.72361" lon="5.95738">
        <ele>566</ele>
        <time>2022-01-01T12:57:44Z</time>
      </trkpt>
      <trkpt lat="46.72364" lon="5.95743">
        <ele>566.8</ele>
        <time>2022-01-01T12:57:49Z</time>
      </trkpt>
      <trkpt lat="46.72367" lon="5.95749">
        <ele>567.3</ele>
        <time>2022-01-01T12:57:55Z</time>
      </trkpt>
      <trkpt lat="46.72371" lon="5.95754">
        <ele>567.6</ele>
        <time>2022-01-01T12:58:01Z</time>
      </trkpt>
      <trkpt lat="46.72374" lon="5.95759">
        <ele>566.6</ele>
        <time>2022-01-01T12:58:08Z</time>
      </trkpt>
      <trkpt lat="46.72376" lon="5.95766">
        <ele>566</ele>
        <time>2022-01-01T12:58:14Z</time>
      </trkpt>
      <trkpt lat="46.72379" lon="5.95771">
        <ele>565.7</ele>
        <time>2022-01-01T12:58:18Z</time>
      </trkpt>
      <trkpt lat="46.72383" lon="5.95774">
        <ele>565.7</ele>
        <time>2022-01-01T12:58:24Z</time>
      </trkpt>
      <trkpt lat="46.72385" lon="5.9578">
        <ele>566.3</ele>
        <time>2022-01-01T12:58:32Z</time>
      </trkpt>
      <trkpt lat="46.72386" lon="5.95787">
        <ele>566.4</ele>
        <time>2022-01-01T12:58:39Z</time>
      </trkpt>
      <trkpt lat="46.72394" lon="5.95793">
        <ele>570.5</ele>
        <time>2022-01-01T12:58:56Z</time>
      </trkpt>
      <trkpt lat="46.72399" lon="5.95797">
        <ele>571.1</ele>
        <time>2022-01-01T12:58:59Z</time>
      </trkpt>
      <trkpt lat="46.72402" lon="5.95803">
        <ele>571.4</ele>
        <time>2022-01-01T12:59:03Z</time>
      </trkpt>
      <trkpt lat="46.72405" lon="5.95807">
        <ele>572.1</ele>
        <time>2022-01-01T12:59:09Z</time>
      </trkpt>
      <trkpt lat="46.72408" lon="5.95813">
        <ele>572.4</ele>
        <time>2022-01-01T12:59:16Z</time>
      </trkpt>
      <trkpt lat="46.7241" lon="5.95819">
        <ele>572.1</ele>
        <time>2022-01-01T12:59:23Z</time>
      </trkpt>
      <trkpt lat="46.72411" lon="5.95826">
        <ele>571.1</ele>
        <time>2022-01-01T12:59:31Z</time>
      </trkpt>
      <trkpt lat="46.72414" lon="5.95831">
        <ele>570.3</ele>
        <time>2022-01-01T12:59:36Z</time>
      </trkpt>
      <trkpt lat="46.72417" lon="5.95838">
        <ele>569.7</ele>
        <time>2022-01-01T12:59:42Z</time>
      </trkpt>
      <trkpt lat="46.72419" lon="5.95845">
        <ele>570</ele>
        <time>2022-01-01T12:59:49Z</time>
      </trkpt>
      <trkpt lat="46.7242" lon="5.95852">
        <ele>570.7</ele>
        <time>2022-01-01T12:59:57Z</time>
      </trkpt>
      <trkpt lat="46.72421" lon="5.95858">
        <ele>570.6</ele>
        <time>2022-01-01T13:00:03Z</time>
      </trkpt>
      <trkpt lat="46.72421" lon="5.95865">
        <ele>570.1</ele>
        <time>2022-01-01T13:00:09Z</time>
      </trkpt>
      <trkpt lat="46.72421" lon="5.95873">
        <ele>569.8</ele>
        <time>2022-01-01T13:00:16Z</time>
      </trkpt>
      <trkpt lat="46.72425" lon="5.95875">
        <ele>568.6</ele>
        <time>2022-01-01T13:00:24Z</time>
      </trkpt>
      <trkpt lat="46.72427" lon="5.95882">
        <ele>567.5</ele>
        <time>2022-01-01T13:00:33Z</time>
      </trkpt>
      <trkpt lat="46.72425" lon="5.95888">
        <ele>567.9</ele>
        <time>2022-01-01T13:00:39Z</time>
      </trkpt>
      <trkpt lat="46.72423" lon="5.95895">
        <ele>568.8</ele>
        <time>2022-01-01T13:00:45Z</time>
      </trkpt>
      <trkpt lat="46.72421" lon="5.95901">
        <ele>569.4</ele>
        <time>2022-01-01T13:00:53Z</time>
      </trkpt>
      <trkpt lat="46.72423" lon="5.95907">
        <ele>570.1</ele>
        <time>2022-01-01T13:01:03Z</time>
      </trkpt>
      <trkpt lat="46.72424" lon="5.95914">
        <ele>570.8</ele>
        <time>2022-01-01T13:01:14Z</time>
      </trkpt>
      <trkpt lat="46.72424" lon="5.95922">
        <ele>571</ele>
        <time>2022-01-01T13:01:20Z</time>
      </trkpt>
      <trkpt lat="46.72426" lon="5.95929">
        <ele>571.2</ele>
        <time>2022-01-01T13:01:26Z</time>
      </trkpt>
      <trkpt lat="46.72429" lon="5.95934">
        <ele>570.3</ele>
        <time>2022-01-01T13:01:33Z</time>
      </trkpt>
      <trkpt lat="46.72434" lon="5.95937">
        <ele>567.9</ele>
        <time>2022-01-01T13:01:54Z</time>
      </trkpt>
      <trkpt lat="46.72428" lon="5.95935">
        <ele>568.5</ele>
        <time>2022-01-01T13:03:13Z</time>
      </trkpt>
      <trkpt lat="46.72425" lon="5.9593">
        <ele>569.8</ele>
        <time>2022-01-01T13:03:19Z</time>
      </trkpt>
      <trkpt lat="46.72425" lon="5.95922">
        <ele>569.8</ele>
        <time>2022-01-01T13:03:30Z</time>
      </trkpt>
      <trkpt lat="46.72426" lon="5.95916">
        <ele>570.3</ele>
        <time>2022-01-01T13:03:36Z</time>
      </trkpt>
      <trkpt lat="46.72426" lon="5.95909">
        <ele>570.6</ele>
        <time>2022-01-01T13:03:44Z</time>
      </trkpt>
      <trkpt lat="46.72421" lon="5.95911">
        <ele>570</ele>
        <time>2022-01-01T13:03:53Z</time>
      </trkpt>
      <trkpt lat="46.72418" lon="5.95916">
        <ele>570.1</ele>
        <time>2022-01-01T13:03:59Z</time>
      </trkpt>
      <trkpt lat="46.72416" lon="5.95923">
        <ele>570.4</ele>
        <time>2022-01-01T13:04:06Z</time>
      </trkpt>
      <trkpt lat="46.72415" lon="5.9593">
        <ele>570.7</ele>
        <time>2022-01-01T13:04:12Z</time>
      </trkpt>
      <trkpt lat="46.72413" lon="5.95936">
        <ele>570.4</ele>
        <time>2022-01-01T13:04:18Z</time>
      </trkpt>
      <trkpt lat="46.72409" lon="5.95939">
        <ele>571.5</ele>
        <time>2022-01-01T13:04:26Z</time>
      </trkpt>
      <trkpt lat="46.72404" lon="5.95941">
        <ele>572.6</ele>
        <time>2022-01-01T13:04:32Z</time>
      </trkpt>
      <trkpt lat="46.72399" lon="5.95943">
        <ele>574.3</ele>
        <time>2022-01-01T13:04:44Z</time>
      </trkpt>
      <trkpt lat="46.72397" lon="5.95949">
        <ele>574.6</ele>
        <time>2022-01-01T13:04:50Z</time>
      </trkpt>
      <trkpt lat="46.72395" lon="5.95956">
        <ele>574.8</ele>
        <time>2022-01-01T13:04:55Z</time>
      </trkpt>
      <trkpt lat="46.72393" lon="5.95962">
        <ele>574.9</ele>
        <time>2022-01-01T13:05:02Z</time>
      </trkpt>
      <trkpt lat="46.7239" lon="5.95966">
        <ele>575.1</ele>
        <time>2022-01-01T13:05:08Z</time>
      </trkpt>
      <trkpt lat="46.72388" lon="5.95973">
        <ele>575.3</ele>
        <time>2022-01-01T13:05:15Z</time>
      </trkpt>
      <trkpt lat="46.72384" lon="5.95977">
        <ele>575.1</ele>
        <time>2022-01-01T13:05:21Z</time>
      </trkpt>
      <trkpt lat="46.7238" lon="5.95979">
        <ele>574.5</ele>
        <time>2022-01-01T13:05:28Z</time>
      </trkpt>
      <trkpt lat="46.72375" lon="5.95983">
        <ele>573.5</ele>
        <time>2022-01-01T13:05:35Z</time>
      </trkpt>
      <trkpt lat="46.72371" lon="5.95986">
        <ele>572</ele>
        <time>2022-01-01T13:05:42Z</time>
      </trkpt>
      <trkpt lat="46.72366" lon="5.9599">
        <ele>571.1</ele>
        <time>2022-01-01T13:05:47Z</time>
      </trkpt>
      <trkpt lat="46.72363" lon="5.95995">
        <ele>570.7</ele>
        <time>2022-01-01T13:05:50Z</time>
      </trkpt>
      <trkpt lat="46.72359" lon="5.96001">
        <ele>570.7</ele>
        <time>2022-01-01T13:05:54Z</time>
      </trkpt>
      <trkpt lat="46.72354" lon="5.96006">
        <ele>570.7</ele>
        <time>2022-01-01T13:05:58Z</time>
      </trkpt>
      <trkpt lat="46.7235" lon="5.96012">
        <ele>570.5</ele>
        <time>2022-01-01T13:06:02Z</time>
      </trkpt>
      <trkpt lat="46.72346" lon="5.96016">
        <ele>570.4</ele>
        <time>2022-01-01T13:06:08Z</time>
      </trkpt>
      <trkpt lat="46.72341" lon="5.96018">
        <ele>571.2</ele>
        <time>2022-01-01T13:06:14Z</time>
      </trkpt>
      <trkpt lat="46.72337" lon="5.96021">
        <ele>571.4</ele>
        <time>2022-01-01T13:06:20Z</time>
      </trkpt>
      <trkpt lat="46.72333" lon="5.96024">
        <ele>571.7</ele>
        <time>2022-01-01T13:06:26Z</time>
      </trkpt>
      <trkpt lat="46.72328" lon="5.96025">
        <ele>571.5</ele>
        <time>2022-01-01T13:06:30Z</time>
      </trkpt>
      <trkpt lat="46.72323" lon="5.96026">
        <ele>571.1</ele>
        <time>2022-01-01T13:06:35Z</time>
      </trkpt>
      <trkpt lat="46.72318" lon="5.96026">
        <ele>570.9</ele>
        <time>2022-01-01T13:06:40Z</time>
      </trkpt>
      <trkpt lat="46.72313" lon="5.96025">
        <ele>570.8</ele>
        <time>2022-01-01T13:06:46Z</time>
      </trkpt>
      <trkpt lat="46.72308" lon="5.96025">
        <ele>571</ele>
        <time>2022-01-01T13:06:51Z</time>
      </trkpt>
      <trkpt lat="46.72303" lon="5.96021">
        <ele>571</ele>
        <time>2022-01-01T13:06:57Z</time>
      </trkpt>
      <trkpt lat="46.72297" lon="5.96022">
        <ele>571.3</ele>
        <time>2022-01-01T13:07:01Z</time>
      </trkpt>
      <trkpt lat="46.72293" lon="5.96023">
        <ele>571.6</ele>
        <time>2022-01-01T13:07:05Z</time>
      </trkpt>
      <trkpt lat="46.72287" lon="5.96025">
        <ele>572.4</ele>
        <time>2022-01-01T13:07:09Z</time>
      </trkpt>
      <trkpt lat="46.72283" lon="5.96028">
        <ele>572.9</ele>
        <time>2022-01-01T13:07:13Z</time>
      </trkpt>
      <trkpt lat="46.72278" lon="5.96028">
        <ele>573.1</ele>
        <time>2022-01-01T13:07:16Z</time>
      </trkpt>
      <trkpt lat="46.72274" lon="5.96027">
        <ele>573</ele>
        <time>2022-01-01T13:07:19Z</time>
      </trkpt>
      <trkpt lat="46.72269" lon="5.96024">
        <ele>573.1</ele>
        <time>2022-01-01T13:07:22Z</time>
      </trkpt>
      <trkpt lat="46.72264" lon="5.96022">
        <ele>574.4</ele>
        <time>2022-01-01T13:07:26Z</time>
      </trkpt>
      <trkpt lat="46.72259" lon="5.96021">
        <ele>576.4</ele>
        <time>2022-01-01T13:07:31Z</time>
      </trkpt>
      <trkpt lat="46.72255" lon="5.96024">
        <ele>578.1</ele>
        <time>2022-01-01T13:07:35Z</time>
      </trkpt>
      <trkpt lat="46.7225" lon="5.96026">
        <ele>579.7</ele>
        <time>2022-01-01T13:07:40Z</time>
      </trkpt>
      <trkpt lat="46.72246" lon="5.96029">
        <ele>580.6</ele>
        <time>2022-01-01T13:07:44Z</time>
      </trkpt>
      <trkpt lat="46.72241" lon="5.96032">
        <ele>581.8</ele>
        <time>2022-01-01T13:07:48Z</time>
      </trkpt>
      <trkpt lat="46.72238" lon="5.96038">
        <ele>583.2</ele>
        <time>2022-01-01T13:07:53Z</time>
      </trkpt>
      <trkpt lat="46.72237" lon="5.96045">
        <ele>584.6</ele>
        <time>2022-01-01T13:07:59Z</time>
      </trkpt>
      <trkpt lat="46.72239" lon="5.96052">
        <ele>585.9</ele>
        <time>2022-01-01T13:08:05Z</time>
      </trkpt>
      <trkpt lat="46.72239" lon="5.9606">
        <ele>586.7</ele>
        <time>2022-01-01T13:08:10Z</time>
      </trkpt>
      <trkpt lat="46.72241" lon="5.96067">
        <ele>587.2</ele>
        <time>2022-01-01T13:08:15Z</time>
      </trkpt>
      <trkpt lat="46.72245" lon="5.9607">
        <ele>587.4</ele>
        <time>2022-01-01T13:08:19Z</time>
      </trkpt>
      <trkpt lat="46.7225" lon="5.96072">
        <ele>587.5</ele>
        <time>2022-01-01T13:08:23Z</time>
      </trkpt>
      <trkpt lat="46.72255" lon="5.96075">
        <ele>587.5</ele>
        <time>2022-01-01T13:08:27Z</time>
      </trkpt>
      <trkpt lat="46.72259" lon="5.96076">
        <ele>587.6</ele>
        <time>2022-01-01T13:08:32Z</time>
      </trkpt>
      <trkpt lat="46.72264" lon="5.96077">
        <ele>587.7</ele>
        <time>2022-01-01T13:08:36Z</time>
      </trkpt>
      <trkpt lat="46.72269" lon="5.96079">
        <ele>588.6</ele>
        <time>2022-01-01T13:08:46Z</time>
      </trkpt>
      <trkpt lat="46.72274" lon="5.96083">
        <ele>588.8</ele>
        <time>2022-01-01T13:08:51Z</time>
      </trkpt>
      <trkpt lat="46.72278" lon="5.96088">
        <ele>588.8</ele>
        <time>2022-01-01T13:08:55Z</time>
      </trkpt>
      <trkpt lat="46.72283" lon="5.96092">
        <ele>588.8</ele>
        <time>2022-01-01T13:08:59Z</time>
      </trkpt>
      <trkpt lat="46.72287" lon="5.96096">
        <ele>588.6</ele>
        <time>2022-01-01T13:09:03Z</time>
      </trkpt>
      <trkpt lat="46.72289" lon="5.96103">
        <ele>588.2</ele>
        <time>2022-01-01T13:09:08Z</time>
      </trkpt>
      <trkpt lat="46.7229" lon="5.9611">
        <ele>587.4</ele>
        <time>2022-01-01T13:09:14Z</time>
      </trkpt>
      <trkpt lat="46.7229" lon="5.96117">
        <ele>586.6</ele>
        <time>2022-01-01T13:09:20Z</time>
      </trkpt>
      <trkpt lat="46.7229" lon="5.96123">
        <ele>585.9</ele>
        <time>2022-01-01T13:09:26Z</time>
      </trkpt>
      <trkpt lat="46.7229" lon="5.96131">
        <ele>585.8</ele>
        <time>2022-01-01T13:09:33Z</time>
      </trkpt>
      <trkpt lat="46.72293" lon="5.96137">
        <ele>586.1</ele>
        <time>2022-01-01T13:09:39Z</time>
      </trkpt>
      <trkpt lat="46.72295" lon="5.96144">
        <ele>586.8</ele>
        <time>2022-01-01T13:09:46Z</time>
      </trkpt>
      <trkpt lat="46.72298" lon="5.9615">
        <ele>586.1</ele>
        <time>2022-01-01T13:10:01Z</time>
      </trkpt>
      <trkpt lat="46.723" lon="5.96156">
        <ele>585.3</ele>
        <time>2022-01-01T13:10:12Z</time>
      </trkpt>
      <trkpt lat="46.72297" lon="5.96162">
        <ele>585.2</ele>
        <time>2022-01-01T13:10:17Z</time>
      </trkpt>
      <trkpt lat="46.72293" lon="5.96165">
        <ele>585</ele>
        <time>2022-01-01T13:10:23Z</time>
      </trkpt>
      <trkpt lat="46.7229" lon="5.9617">
        <ele>584.7</ele>
        <time>2022-01-01T13:10:30Z</time>
      </trkpt>
      <trkpt lat="46.72288" lon="5.96177">
        <ele>584.4</ele>
        <time>2022-01-01T13:10:39Z</time>
      </trkpt>
      <trkpt lat="46.72287" lon="5.96184">
        <ele>584.1</ele>
        <time>2022-01-01T13:10:48Z</time>
      </trkpt>
      <trkpt lat="46.72285" lon="5.9619">
        <ele>583.8</ele>
        <time>2022-01-01T13:10:55Z</time>
      </trkpt>
      <trkpt lat="46.72283" lon="5.96197">
        <ele>583.8</ele>
        <time>2022-01-01T13:11:01Z</time>
      </trkpt>
      <trkpt lat="46.7228" lon="5.96203">
        <ele>583.6</ele>
        <time>2022-01-01T13:11:06Z</time>
      </trkpt>
      <trkpt lat="46.72279" lon="5.96212">
        <ele>583.3</ele>
        <time>2022-01-01T13:11:11Z</time>
      </trkpt>
      <trkpt lat="46.7228" lon="5.96219">
        <ele>583.3</ele>
        <time>2022-01-01T13:11:16Z</time>
      </trkpt>
      <trkpt lat="46.72281" lon="5.96228">
        <ele>583.3</ele>
        <time>2022-01-01T13:11:22Z</time>
      </trkpt>
      <trkpt lat="46.72282" lon="5.96235">
        <ele>582.9</ele>
        <time>2022-01-01T13:11:27Z</time>
      </trkpt>
      <trkpt lat="46.72285" lon="5.9624">
        <ele>581.7</ele>
        <time>2022-01-01T13:11:33Z</time>
      </trkpt>
      <trkpt lat="46.7229" lon="5.96243">
        <ele>580.3</ele>
        <time>2022-01-01T13:11:41Z</time>
      </trkpt>
      <trkpt lat="46.72295" lon="5.96246">
        <ele>579.6</ele>
        <time>2022-01-01T13:11:48Z</time>
      </trkpt>
      <trkpt lat="46.72301" lon="5.96246">
        <ele>580</ele>
        <time>2022-01-01T13:11:58Z</time>
      </trkpt>
      <trkpt lat="46.72306" lon="5.96245">
        <ele>580.5</ele>
        <time>2022-01-01T13:12:01Z</time>
      </trkpt>
      <trkpt lat="46.72311" lon="5.96245">
        <ele>581.1</ele>
        <time>2022-01-01T13:12:05Z</time>
      </trkpt>
      <trkpt lat="46.72316" lon="5.96243">
        <ele>581.7</ele>
        <time>2022-01-01T13:12:09Z</time>
      </trkpt>
      <trkpt lat="46.7232" lon="5.96245">
        <ele>582.9</ele>
        <time>2022-01-01T13:12:15Z</time>
      </trkpt>
      <trkpt lat="46.72325" lon="5.96248">
        <ele>583.7</ele>
        <time>2022-01-01T13:12:19Z</time>
      </trkpt>
      <trkpt lat="46.7233" lon="5.9625">
        <ele>584</ele>
        <time>2022-01-01T13:12:23Z</time>
      </trkpt>
      <trkpt lat="46.72335" lon="5.96253">
        <ele>584.2</ele>
        <time>2022-01-01T13:12:26Z</time>
      </trkpt>
      <trkpt lat="46.7234" lon="5.96255">
        <ele>584.2</ele>
        <time>2022-01-01T13:12:29Z</time>
      </trkpt>
      <trkpt lat="46.72344" lon="5.96258">
        <ele>584.1</ele>
        <time>2022-01-01T13:12:33Z</time>
      </trkpt>
      <trkpt lat="46.72347" lon="5.96263">
        <ele>583.6</ele>
        <time>2022-01-01T13:12:39Z</time>
      </trkpt>
      <trkpt lat="46.72344" lon="5.9627">
        <ele>582.9</ele>
        <time>2022-01-01T13:12:46Z</time>
      </trkpt>
      <trkpt lat="46.7234" lon="5.96272">
        <ele>582.3</ele>
        <time>2022-01-01T13:12:50Z</time>
      </trkpt>
      <trkpt lat="46.72345" lon="5.96272">
        <ele>582.3</ele>
        <time>2022-01-01T13:13:39Z</time>
      </trkpt>
      <trkpt lat="46.72345" lon="5.96279">
        <ele>580.3</ele>
        <time>2022-01-01T13:14:00Z</time>
      </trkpt>
      <trkpt lat="46.72349" lon="5.96284">
        <ele>580.9</ele>
        <time>2022-01-01T13:14:06Z</time>
      </trkpt>
      <trkpt lat="46.72348" lon="5.96291">
        <ele>584.5</ele>
        <time>2022-01-01T13:14:28Z</time>
      </trkpt>
      <trkpt lat="46.72348" lon="5.96283">
        <ele>588.5</ele>
        <time>2022-01-01T13:14:42Z</time>
      </trkpt>
      <trkpt lat="46.72352" lon="5.96289">
        <ele>589.5</ele>
        <time>2022-01-01T13:15:10Z</time>
      </trkpt>
      <trkpt lat="46.72357" lon="5.96292">
        <ele>589</ele>
        <time>2022-01-01T13:15:13Z</time>
      </trkpt>
      <trkpt lat="46.72362" lon="5.96294">
        <ele>588.4</ele>
        <time>2022-01-01T13:15:16Z</time>
      </trkpt>
      <trkpt lat="46.72367" lon="5.96296">
        <ele>587.8</ele>
        <time>2022-01-01T13:15:20Z</time>
      </trkpt>
      <trkpt lat="46.72372" lon="5.96296">
        <ele>586.9</ele>
        <time>2022-01-01T13:15:24Z</time>
      </trkpt>
      <trkpt lat="46.72377" lon="5.96298">
        <ele>586.3</ele>
        <time>2022-01-01T13:15:27Z</time>
      </trkpt>
      <trkpt lat="46.72382" lon="5.963">
        <ele>586</ele>
        <time>2022-01-01T13:15:32Z</time>
      </trkpt>
      <trkpt lat="46.72383" lon="5.96306">
        <ele>586.9</ele>
        <time>2022-01-01T13:15:59Z</time>
      </trkpt>
      <trkpt lat="46.7238" lon="5.96301">
        <ele>585.6</ele>
        <time>2022-01-01T13:16:11Z</time>
      </trkpt>
      <trkpt lat="46.72385" lon="5.96301">
        <ele>582.3</ele>
        <time>2022-01-01T13:16:23Z</time>
      </trkpt>
      <trkpt lat="46.7239" lon="5.96304">
        <ele>582</ele>
        <time>2022-01-01T13:16:26Z</time>
      </trkpt>
      <trkpt lat="46.72394" lon="5.9631">
        <ele>582.2</ele>
        <time>2022-01-01T13:16:30Z</time>
      </trkpt>
      <trkpt lat="46.72397" lon="5.96315">
        <ele>582.8</ele>
        <time>2022-01-01T13:16:34Z</time>
      </trkpt>
      <trkpt lat="46.72401" lon="5.96319">
        <ele>583.6</ele>
        <time>2022-01-01T13:16:39Z</time>
      </trkpt>
      <trkpt lat="46.72405" lon="5.96322">
        <ele>584</ele>
        <time>2022-01-01T13:16:44Z</time>
      </trkpt>
      <trkpt lat="46.7241" lon="5.96324">
        <ele>584.5</ele>
        <time>2022-01-01T13:16:48Z</time>
      </trkpt>
      <trkpt lat="46.72416" lon="5.96326">
        <ele>584.9</ele>
        <time>2022-01-01T13:16:52Z</time>
      </trkpt>
      <trkpt lat="46.72421" lon="5.96329">
        <ele>585.4</ele>
        <time>2022-01-01T13:16:57Z</time>
      </trkpt>
      <trkpt lat="46.72425" lon="5.96331">
        <ele>585.3</ele>
        <time>2022-01-01T13:17:02Z</time>
      </trkpt>
      <trkpt lat="46.7243" lon="5.96331">
        <ele>585.5</ele>
        <time>2022-01-01T13:17:08Z</time>
      </trkpt>
      <trkpt lat="46.72435" lon="5.96333">
        <ele>585.3</ele>
        <time>2022-01-01T13:17:14Z</time>
      </trkpt>
      <trkpt lat="46.7244" lon="5.96335">
        <ele>585</ele>
        <time>2022-01-01T13:17:20Z</time>
      </trkpt>
      <trkpt lat="46.72444" lon="5.96339">
        <ele>585.4</ele>
        <time>2022-01-01T13:17:25Z</time>
      </trkpt>
      <trkpt lat="46.72448" lon="5.96345">
        <ele>585.7</ele>
        <time>2022-01-01T13:17:31Z</time>
      </trkpt>
      <trkpt lat="46.72451" lon="5.9635">
        <ele>585.6</ele>
        <time>2022-01-01T13:17:36Z</time>
      </trkpt>
      <trkpt lat="46.72456" lon="5.96349">
        <ele>585.7</ele>
        <time>2022-01-01T13:17:42Z</time>
      </trkpt>
      <trkpt lat="46.7246" lon="5.96353">
        <ele>585.9</ele>
        <time>2022-01-01T13:17:47Z</time>
      </trkpt>
      <trkpt lat="46.72464" lon="5.96357">
        <ele>587</ele>
        <time>2022-01-01T13:17:54Z</time>
      </trkpt>
      <trkpt lat="46.7247" lon="5.96361">
        <ele>587.5</ele>
        <time>2022-01-01T13:17:58Z</time>
      </trkpt>
      <trkpt lat="46.72475" lon="5.96362">
        <ele>587.8</ele>
        <time>2022-01-01T13:18:02Z</time>
      </trkpt>
      <trkpt lat="46.72479" lon="5.96365">
        <ele>587.9</ele>
        <time>2022-01-01T13:18:08Z</time>
      </trkpt>
      <trkpt lat="46.72483" lon="5.96369">
        <ele>588</ele>
        <time>2022-01-01T13:18:13Z</time>
      </trkpt>
      <trkpt lat="46.72487" lon="5.96374">
        <ele>588.1</ele>
        <time>2022-01-01T13:18:19Z</time>
      </trkpt>
      <trkpt lat="46.7249" lon="5.9638">
        <ele>587.2</ele>
        <time>2022-01-01T13:18:26Z</time>
      </trkpt>
      <trkpt lat="46.72494" lon="5.96383">
        <ele>586.4</ele>
        <time>2022-01-01T13:18:30Z</time>
      </trkpt>
      <trkpt lat="46.72499" lon="5.96385">
        <ele>584.9</ele>
        <time>2022-01-01T13:18:35Z</time>
      </trkpt>
      <trkpt lat="46.72505" lon="5.96385">
        <ele>583.7</ele>
        <time>2022-01-01T13:18:40Z</time>
      </trkpt>
      <trkpt lat="46.7251" lon="5.96386">
        <ele>583</ele>
        <time>2022-01-01T13:18:44Z</time>
      </trkpt>
      <trkpt lat="46.72515" lon="5.96388">
        <ele>582.3</ele>
        <time>2022-01-01T13:18:49Z</time>
      </trkpt>
      <trkpt lat="46.7252" lon="5.96387">
        <ele>581.9</ele>
        <time>2022-01-01T13:18:53Z</time>
      </trkpt>
      <trkpt lat="46.72522" lon="5.96381">
        <ele>581.2</ele>
        <time>2022-01-01T13:19:02Z</time>
      </trkpt>
      <trkpt lat="46.72517" lon="5.96381">
        <ele>581.5</ele>
        <time>2022-01-01T13:19:08Z</time>
      </trkpt>
      <trkpt lat="46.72512" lon="5.96382">
        <ele>581.4</ele>
        <time>2022-01-01T13:19:11Z</time>
      </trkpt>
      <trkpt lat="46.72507" lon="5.96383">
        <ele>581.5</ele>
        <time>2022-01-01T13:19:14Z</time>
      </trkpt>
      <trkpt lat="46.72503" lon="5.96381">
        <ele>581.6</ele>
        <time>2022-01-01T13:19:17Z</time>
      </trkpt>
      <trkpt lat="46.72497" lon="5.9638">
        <ele>581.9</ele>
        <time>2022-01-01T13:19:21Z</time>
      </trkpt>
      <trkpt lat="46.72494" lon="5.96375">
        <ele>582.6</ele>
        <time>2022-01-01T13:19:28Z</time>
      </trkpt>
      <trkpt lat="46.72496" lon="5.96369">
        <ele>586.1</ele>
        <time>2022-01-01T13:20:13Z</time>
      </trkpt>
      <trkpt lat="46.72501" lon="5.96369">
        <ele>588.9</ele>
        <time>2022-01-01T13:20:19Z</time>
      </trkpt>
      <trkpt lat="46.72498" lon="5.96373">
        <ele>588.3</ele>
        <time>2022-01-01T13:20:26Z</time>
      </trkpt>
      <trkpt lat="46.72494" lon="5.96378">
        <ele>586.7</ele>
        <time>2022-01-01T13:20:33Z</time>
      </trkpt>
      <trkpt lat="46.72498" lon="5.96383">
        <ele>584.4</ele>
        <time>2022-01-01T13:20:42Z</time>
      </trkpt>
      <trkpt lat="46.72503" lon="5.96385">
        <ele>583.8</ele>
        <time>2022-01-01T13:20:46Z</time>
      </trkpt>
      <trkpt lat="46.72509" lon="5.96385">
        <ele>583.9</ele>
        <time>2022-01-01T13:20:49Z</time>
      </trkpt>
      <trkpt lat="46.72513" lon="5.96385">
        <ele>583.7</ele>
        <time>2022-01-01T13:20:52Z</time>
      </trkpt>
      <trkpt lat="46.72519" lon="5.96386">
        <ele>583.5</ele>
        <time>2022-01-01T13:20:57Z</time>
      </trkpt>
      <trkpt lat="46.72523" lon="5.96388">
        <ele>582.7</ele>
        <time>2022-01-01T13:21:03Z</time>
      </trkpt>
      <trkpt lat="46.72527" lon="5.96385">
        <ele>579.4</ele>
        <time>2022-01-01T13:21:13Z</time>
      </trkpt>
      <trkpt lat="46.72529" lon="5.96378">
        <ele>578.6</ele>
        <time>2022-01-01T13:21:18Z</time>
      </trkpt>
      <trkpt lat="46.7253" lon="5.96371">
        <ele>578.9</ele>
        <time>2022-01-01T13:21:23Z</time>
      </trkpt>
      <trkpt lat="46.72528" lon="5.96364">
        <ele>581.2</ele>
        <time>2022-01-01T13:21:37Z</time>
      </trkpt>
      <trkpt lat="46.72527" lon="5.96357">
        <ele>582.1</ele>
        <time>2022-01-01T13:21:41Z</time>
      </trkpt>
      <trkpt lat="46.72528" lon="5.9635">
        <ele>582.8</ele>
        <time>2022-01-01T13:21:49Z</time>
      </trkpt>
      <trkpt lat="46.72533" lon="5.96352">
        <ele>582.6</ele>
        <time>2022-01-01T13:21:56Z</time>
      </trkpt>
      <trkpt lat="46.72535" lon="5.96361">
        <ele>583.5</ele>
        <time>2022-01-01T13:22:16Z</time>
      </trkpt>
      <trkpt lat="46.72536" lon="5.96369">
        <ele>585.1</ele>
        <time>2022-01-01T13:22:20Z</time>
      </trkpt>
      <trkpt lat="46.72534" lon="5.96376">
        <ele>588.2</ele>
        <time>2022-01-01T13:22:28Z</time>
      </trkpt>
      <trkpt lat="46.72537" lon="5.96368">
        <ele>588.8</ele>
        <time>2022-01-01T13:22:34Z</time>
      </trkpt>
      <trkpt lat="46.72538" lon="5.96362">
        <ele>586.4</ele>
        <time>2022-01-01T13:22:52Z</time>
      </trkpt>
      <trkpt lat="46.72533" lon="5.9636">
        <ele>586.8</ele>
        <time>2022-01-01T13:23:09Z</time>
      </trkpt>
      <trkpt lat="46.72529" lon="5.96363">
        <ele>588.5</ele>
        <time>2022-01-01T13:23:15Z</time>
      </trkpt>
      <trkpt lat="46.72525" lon="5.96369">
        <ele>590.1</ele>
        <time>2022-01-01T13:23:20Z</time>
      </trkpt>
      <trkpt lat="46.72522" lon="5.96374">
        <ele>592.5</ele>
        <time>2022-01-01T13:23:23Z</time>
      </trkpt>
      <trkpt lat="46.7252" lon="5.96381">
        <ele>598.3</ele>
        <time>2022-01-01T13:23:30Z</time>
      </trkpt>
      <trkpt lat="46.72516" lon="5.9638">
        <ele>601.8</ele>
        <time>2022-01-01T13:23:57Z</time>
      </trkpt>
      <trkpt lat="46.72514" lon="5.96374">
        <ele>600.8</ele>
        <time>2022-01-01T13:24:07Z</time>
      </trkpt>
      <trkpt lat="46.72517" lon="5.96368">
        <ele>595.6</ele>
        <time>2022-01-01T13:24:35Z</time>
      </trkpt>
      <trkpt lat="46.72515" lon="5.96374">
        <ele>596.8</ele>
        <time>2022-01-01T13:24:55Z</time>
      </trkpt>
      <trkpt lat="46.72512" lon="5.96369">
        <ele>597.7</ele>
        <time>2022-01-01T13:25:03Z</time>
      </trkpt>
      <trkpt lat="46.72506" lon="5.96369">
        <ele>598.3</ele>
        <time>2022-01-01T13:25:07Z</time>
      </trkpt>
      <trkpt lat="46.72506" lon="5.96361">
        <ele>598.3</ele>
        <time>2022-01-01T13:25:12Z</time>
      </trkpt>
      <trkpt lat="46.72503" lon="5.96355">
        <ele>597.4</ele>
        <time>2022-01-01T13:25:20Z</time>
      </trkpt>
      <trkpt lat="46.72502" lon="5.96348">
        <ele>596.3</ele>
        <time>2022-01-01T13:25:28Z</time>
      </trkpt>
      <trkpt lat="46.72498" lon="5.96343">
        <ele>595</ele>
        <time>2022-01-01T13:25:34Z</time>
      </trkpt>
      <trkpt lat="46.72494" lon="5.96339">
        <ele>593.3</ele>
        <time>2022-01-01T13:25:41Z</time>
      </trkpt>
      <trkpt lat="46.72489" lon="5.96335">
        <ele>592.1</ele>
        <time>2022-01-01T13:25:48Z</time>
      </trkpt>
      <trkpt lat="46.72486" lon="5.9633">
        <ele>591.9</ele>
        <time>2022-01-01T13:25:53Z</time>
      </trkpt>
      <trkpt lat="46.72482" lon="5.96325">
        <ele>591.3</ele>
        <time>2022-01-01T13:25:59Z</time>
      </trkpt>
      <trkpt lat="46.72477" lon="5.96322">
        <ele>591.1</ele>
        <time>2022-01-01T13:26:03Z</time>
      </trkpt>
      <trkpt lat="46.72473" lon="5.96318">
        <ele>591.3</ele>
        <time>2022-01-01T13:26:09Z</time>
      </trkpt>
      <trkpt lat="46.72468" lon="5.96316">
        <ele>591.3</ele>
        <time>2022-01-01T13:26:16Z</time>
      </trkpt>
      <trkpt lat="46.72463" lon="5.96316">
        <ele>592.4</ele>
        <time>2022-01-01T13:26:20Z</time>
      </trkpt>
      <trkpt lat="46.72459" lon="5.96314">
        <ele>594.8</ele>
        <time>2022-01-01T13:26:26Z</time>
      </trkpt>
      <trkpt lat="46.72455" lon="5.96309">
        <ele>595.9</ele>
        <time>2022-01-01T13:26:32Z</time>
      </trkpt>
      <trkpt lat="46.72451" lon="5.96305">
        <ele>596.2</ele>
        <time>2022-01-01T13:26:37Z</time>
      </trkpt>
      <trkpt lat="46.72447" lon="5.96302">
        <ele>596.1</ele>
        <time>2022-01-01T13:26:42Z</time>
      </trkpt>
      <trkpt lat="46.72443" lon="5.96297">
        <ele>595.2</ele>
        <time>2022-01-01T13:26:47Z</time>
      </trkpt>
      <trkpt lat="46.72439" lon="5.96293">
        <ele>594</ele>
        <time>2022-01-01T13:26:51Z</time>
      </trkpt>
      <trkpt lat="46.72435" lon="5.96291">
        <ele>592.7</ele>
        <time>2022-01-01T13:26:55Z</time>
      </trkpt>
      <trkpt lat="46.72431" lon="5.96287">
        <ele>590.7</ele>
        <time>2022-01-01T13:27:01Z</time>
      </trkpt>
      <trkpt lat="46.72428" lon="5.96281">
        <ele>589.5</ele>
        <time>2022-01-01T13:27:07Z</time>
      </trkpt>
      <trkpt lat="46.72425" lon="5.96276">
        <ele>588.5</ele>
        <time>2022-01-01T13:27:12Z</time>
      </trkpt>
      <trkpt lat="46.72423" lon="5.9627">
        <ele>587.5</ele>
        <time>2022-01-01T13:27:17Z</time>
      </trkpt>
      <trkpt lat="46.7242" lon="5.96264">
        <ele>586.5</ele>
        <time>2022-01-01T13:27:22Z</time>
      </trkpt>
      <trkpt lat="46.72417" lon="5.96258">
        <ele>585.6</ele>
        <time>2022-01-01T13:27:28Z</time>
      </trkpt>
      <trkpt lat="46.72416" lon="5.96251">
        <ele>585.3</ele>
        <time>2022-01-01T13:27:35Z</time>
      </trkpt>
      <trkpt lat="46.72413" lon="5.96245">
        <ele>585.1</ele>
        <time>2022-01-01T13:27:41Z</time>
      </trkpt>
      <trkpt lat="46.72411" lon="5.96239">
        <ele>584.3</ele>
        <time>2022-01-01T13:27:48Z</time>
      </trkpt>
      <trkpt lat="46.72407" lon="5.96235">
        <ele>583.8</ele>
        <time>2022-01-01T13:27:55Z</time>
      </trkpt>
      <trkpt lat="46.72402" lon="5.96233">
        <ele>583.9</ele>
        <time>2022-01-01T13:28:01Z</time>
      </trkpt>
      <trkpt lat="46.72397" lon="5.96232">
        <ele>585.2</ele>
        <time>2022-01-01T13:28:12Z</time>
      </trkpt>
      <trkpt lat="46.72392" lon="5.96229">
        <ele>586.7</ele>
        <time>2022-01-01T13:28:19Z</time>
      </trkpt>
      <trkpt lat="46.72389" lon="5.96223">
        <ele>587.3</ele>
        <time>2022-01-01T13:28:25Z</time>
      </trkpt>
      <trkpt lat="46.72385" lon="5.96219">
        <ele>587.4</ele>
        <time>2022-01-01T13:28:30Z</time>
      </trkpt>
      <trkpt lat="46.72383" lon="5.96212">
        <ele>587.5</ele>
        <time>2022-01-01T13:28:37Z</time>
      </trkpt>
      <trkpt lat="46.72381" lon="5.96205">
        <ele>587.1</ele>
        <time>2022-01-01T13:28:43Z</time>
      </trkpt>
      <trkpt lat="46.7238" lon="5.96198">
        <ele>586.8</ele>
        <time>2022-01-01T13:28:50Z</time>
      </trkpt>
      <trkpt lat="46.72378" lon="5.96192">
        <ele>587</ele>
        <time>2022-01-01T13:28:57Z</time>
      </trkpt>
      <trkpt lat="46.7238" lon="5.96185">
        <ele>586.3</ele>
        <time>2022-01-01T13:29:03Z</time>
      </trkpt>
      <trkpt lat="46.72382" lon="5.96179">
        <ele>584.1</ele>
        <time>2022-01-01T13:29:08Z</time>
      </trkpt>
      <trkpt lat="46.72385" lon="5.96173">
        <ele>580.7</ele>
        <time>2022-01-01T13:29:16Z</time>
      </trkpt>
      <trkpt lat="46.72388" lon="5.96168">
        <ele>578.3</ele>
        <time>2022-01-01T13:29:23Z</time>
      </trkpt>
      <trkpt lat="46.72391" lon="5.96163">
        <ele>576.7</ele>
        <time>2022-01-01T13:29:29Z</time>
      </trkpt>
      <trkpt lat="46.72391" lon="5.96155">
        <ele>576.5</ele>
        <time>2022-01-01T13:29:34Z</time>
      </trkpt>
      <trkpt lat="46.72391" lon="5.96148">
        <ele>577.4</ele>
        <time>2022-01-01T13:29:38Z</time>
      </trkpt>
      <trkpt lat="46.72392" lon="5.96141">
        <ele>578.2</ele>
        <time>2022-01-01T13:29:43Z</time>
      </trkpt>
      <trkpt lat="46.72393" lon="5.96134">
        <ele>578.6</ele>
        <time>2022-01-01T13:29:47Z</time>
      </trkpt>
      <trkpt lat="46.72395" lon="5.96127">
        <ele>578.8</ele>
        <time>2022-01-01T13:29:52Z</time>
      </trkpt>
      <trkpt lat="46.72396" lon="5.96118">
        <ele>579.2</ele>
        <time>2022-01-01T13:29:57Z</time>
      </trkpt>
      <trkpt lat="46.72397" lon="5.96111">
        <ele>579.8</ele>
        <time>2022-01-01T13:30:02Z</time>
      </trkpt>
      <trkpt lat="46.72398" lon="5.96104">
        <ele>580.9</ele>
        <time>2022-01-01T13:30:08Z</time>
      </trkpt>
      <trkpt lat="46.72401" lon="5.96098">
        <ele>582.1</ele>
        <time>2022-01-01T13:30:14Z</time>
      </trkpt>
      <trkpt lat="46.72404" lon="5.96093">
        <ele>583.3</ele>
        <time>2022-01-01T13:30:19Z</time>
      </trkpt>
      <trkpt lat="46.72407" lon="5.96087">
        <ele>584.8</ele>
        <time>2022-01-01T13:30:25Z</time>
      </trkpt>
      <trkpt lat="46.72408" lon="5.96081">
        <ele>586.1</ele>
        <time>2022-01-01T13:30:30Z</time>
      </trkpt>
      <trkpt lat="46.7241" lon="5.96074">
        <ele>588.3</ele>
        <time>2022-01-01T13:30:36Z</time>
      </trkpt>
      <trkpt lat="46.72414" lon="5.96068">
        <ele>589.9</ele>
        <time>2022-01-01T13:30:41Z</time>
      </trkpt>
      <trkpt lat="46.72416" lon="5.96062">
        <ele>591.5</ele>
        <time>2022-01-01T13:30:47Z</time>
      </trkpt>
      <trkpt lat="46.72419" lon="5.96057">
        <ele>592.7</ele>
        <time>2022-01-01T13:30:55Z</time>
      </trkpt>
      <trkpt lat="46.72422" lon="5.96051">
        <ele>594.2</ele>
        <time>2022-01-01T13:31:24Z</time>
      </trkpt>
      <trkpt lat="46.72426" lon="5.96048">
        <ele>594.4</ele>
        <time>2022-01-01T13:31:33Z</time>
      </trkpt>
      <trkpt lat="46.72431" lon="5.96051">
        <ele>593.8</ele>
        <time>2022-01-01T13:31:40Z</time>
      </trkpt>
      <trkpt lat="46.72432" lon="5.96058">
        <ele>592.9</ele>
        <time>2022-01-01T13:31:49Z</time>
      </trkpt>
      <trkpt lat="46.72437" lon="5.96061">
        <ele>591.8</ele>
        <time>2022-01-01T13:31:55Z</time>
      </trkpt>
      <trkpt lat="46.72441" lon="5.96064">
        <ele>591.4</ele>
        <time>2022-01-01T13:32:02Z</time>
      </trkpt>
      <trkpt lat="46.72445" lon="5.96069">
        <ele>591.7</ele>
        <time>2022-01-01T13:32:08Z</time>
      </trkpt>
      <trkpt lat="46.72449" lon="5.96073">
        <ele>591.8</ele>
        <time>2022-01-01T13:32:13Z</time>
      </trkpt>
      <trkpt lat="46.72453" lon="5.96075">
        <ele>592.4</ele>
        <time>2022-01-01T13:32:20Z</time>
      </trkpt>
      <trkpt lat="46.72458" lon="5.96079">
        <ele>593.2</ele>
        <time>2022-01-01T13:32:25Z</time>
      </trkpt>
      <trkpt lat="46.72462" lon="5.96084">
        <ele>594.2</ele>
        <time>2022-01-01T13:32:31Z</time>
      </trkpt>
      <trkpt lat="46.72466" lon="5.96087">
        <ele>595</ele>
        <time>2022-01-01T13:32:36Z</time>
      </trkpt>
      <trkpt lat="46.72471" lon="5.96091">
        <ele>595.8</ele>
        <time>2022-01-01T13:32:42Z</time>
      </trkpt>
      <trkpt lat="46.72475" lon="5.96094">
        <ele>596.5</ele>
        <time>2022-01-01T13:32:46Z</time>
      </trkpt>
      <trkpt lat="46.7248" lon="5.96097">
        <ele>597.7</ele>
        <time>2022-01-01T13:32:52Z</time>
      </trkpt>
      <trkpt lat="46.72484" lon="5.961">
        <ele>598.8</ele>
        <time>2022-01-01T13:32:58Z</time>
      </trkpt>
      <trkpt lat="46.72489" lon="5.96102">
        <ele>599.4</ele>
        <time>2022-01-01T13:33:03Z</time>
      </trkpt>
      <trkpt lat="46.72494" lon="5.96104">
        <ele>600.2</ele>
        <time>2022-01-01T13:33:09Z</time>
      </trkpt>
      <trkpt lat="46.72499" lon="5.96106">
        <ele>601.9</ele>
        <time>2022-01-01T13:33:16Z</time>
      </trkpt>
      <trkpt lat="46.72504" lon="5.96108">
        <ele>603.6</ele>
        <time>2022-01-01T13:33:22Z</time>
      </trkpt>
      <trkpt lat="46.72509" lon="5.96109">
        <ele>605</ele>
        <time>2022-01-01T13:33:29Z</time>
      </trkpt>
      <trkpt lat="46.72514" lon="5.9611">
        <ele>606.1</ele>
        <time>2022-01-01T13:33:35Z</time>
      </trkpt>
      <trkpt lat="46.72519" lon="5.96112">
        <ele>607</ele>
        <time>2022-01-01T13:33:46Z</time>
      </trkpt>
      <trkpt lat="46.72523" lon="5.96114">
        <ele>607.2</ele>
        <time>2022-01-01T13:33:52Z</time>
      </trkpt>
      <trkpt lat="46.72528" lon="5.96115">
        <ele>607.1</ele>
        <time>2022-01-01T13:33:57Z</time>
      </trkpt>
      <trkpt lat="46.72533" lon="5.96116">
        <ele>607.1</ele>
        <time>2022-01-01T13:34:03Z</time>
      </trkpt>
      <trkpt lat="46.72537" lon="5.96115">
        <ele>607.5</ele>
        <time>2022-01-01T13:34:09Z</time>
      </trkpt>
      <trkpt lat="46.72542" lon="5.96113">
        <ele>608.5</ele>
        <time>2022-01-01T13:34:16Z</time>
      </trkpt>
      <trkpt lat="46.72547" lon="5.96116">
        <ele>609.9</ele>
        <time>2022-01-01T13:34:23Z</time>
      </trkpt>
      <trkpt lat="46.72552" lon="5.96116">
        <ele>611</ele>
        <time>2022-01-01T13:34:30Z</time>
      </trkpt>
      <trkpt lat="46.72557" lon="5.96116">
        <ele>611.9</ele>
        <time>2022-01-01T13:34:35Z</time>
      </trkpt>
      <trkpt lat="46.72561" lon="5.96119">
        <ele>614.2</ele>
        <time>2022-01-01T13:34:44Z</time>
      </trkpt>
      <trkpt lat="46.72566" lon="5.9612">
        <ele>616.9</ele>
        <time>2022-01-01T13:34:58Z</time>
      </trkpt>
      <trkpt lat="46.7257" lon="5.96124">
        <ele>617.3</ele>
        <time>2022-01-01T13:35:04Z</time>
      </trkpt>
      <trkpt lat="46.72574" lon="5.96125">
        <ele>617.6</ele>
        <time>2022-01-01T13:35:12Z</time>
      </trkpt>
      <trkpt lat="46.72579" lon="5.96127">
        <ele>617.7</ele>
        <time>2022-01-01T13:35:18Z</time>
      </trkpt>
      <trkpt lat="46.72583" lon="5.9613">
        <ele>617.4</ele>
        <time>2022-01-01T13:35:24Z</time>
      </trkpt>
      <trkpt lat="46.72587" lon="5.96128">
        <ele>617.4</ele>
        <time>2022-01-01T13:35:35Z</time>
      </trkpt>
      <trkpt lat="46.72593" lon="5.96128">
        <ele>618.9</ele>
        <time>2022-01-01T13:36:03Z</time>
      </trkpt>
      <trkpt lat="46.72594" lon="5.96136">
        <ele>621.9</ele>
        <time>2022-01-01T13:36:23Z</time>
      </trkpt>
      <trkpt lat="46.72595" lon="5.96143">
        <ele>622.2</ele>
        <time>2022-01-01T13:36:27Z</time>
      </trkpt>
      <trkpt lat="46.72598" lon="5.96148">
        <ele>622.1</ele>
        <time>2022-01-01T13:36:32Z</time>
      </trkpt>
      <trkpt lat="46.72602" lon="5.96152">
        <ele>621.7</ele>
        <time>2022-01-01T13:36:38Z</time>
      </trkpt>
      <trkpt lat="46.72605" lon="5.96158">
        <ele>621.3</ele>
        <time>2022-01-01T13:36:45Z</time>
      </trkpt>
      <trkpt lat="46.72608" lon="5.96164">
        <ele>621.1</ele>
        <time>2022-01-01T13:36:51Z</time>
      </trkpt>
      <trkpt lat="46.72612" lon="5.96169">
        <ele>620.3</ele>
        <time>2022-01-01T13:36:56Z</time>
      </trkpt>
      <trkpt lat="46.72616" lon="5.96173">
        <ele>620</ele>
        <time>2022-01-01T13:37:02Z</time>
      </trkpt>
      <trkpt lat="46.72619" lon="5.96179">
        <ele>620.3</ele>
        <time>2022-01-01T13:37:09Z</time>
      </trkpt>
      <trkpt lat="46.72623" lon="5.96184">
        <ele>621</ele>
        <time>2022-01-01T13:37:15Z</time>
      </trkpt>
      <trkpt lat="46.72625" lon="5.9619">
        <ele>621.8</ele>
        <time>2022-01-01T13:37:20Z</time>
      </trkpt>
      <trkpt lat="46.72627" lon="5.96197">
        <ele>622.6</ele>
        <time>2022-01-01T13:37:26Z</time>
      </trkpt>
      <trkpt lat="46.72629" lon="5.96203">
        <ele>623.2</ele>
        <time>2022-01-01T13:37:31Z</time>
      </trkpt>
      <trkpt lat="46.72631" lon="5.96209">
        <ele>623.8</ele>
        <time>2022-01-01T13:37:36Z</time>
      </trkpt>
      <trkpt lat="46.72634" lon="5.96215">
        <ele>624.6</ele>
        <time>2022-01-01T13:37:42Z</time>
      </trkpt>
      <trkpt lat="46.72637" lon="5.96221">
        <ele>625.4</ele>
        <time>2022-01-01T13:37:49Z</time>
      </trkpt>
      <trkpt lat="46.72643" lon="5.96225">
        <ele>629.1</ele>
        <time>2022-01-01T13:38:36Z</time>
      </trkpt>
      <trkpt lat="46.72647" lon="5.96228">
        <ele>630.2</ele>
        <time>2022-01-01T13:38:41Z</time>
      </trkpt>
      <trkpt lat="46.7265" lon="5.96233">
        <ele>630.9</ele>
        <time>2022-01-01T13:38:48Z</time>
      </trkpt>
      <trkpt lat="46.72654" lon="5.96239">
        <ele>631.6</ele>
        <time>2022-01-01T13:38:54Z</time>
      </trkpt>
      <trkpt lat="46.72658" lon="5.96243">
        <ele>631.9</ele>
        <time>2022-01-01T13:39:00Z</time>
      </trkpt>
      <trkpt lat="46.72661" lon="5.96247">
        <ele>632.7</ele>
        <time>2022-01-01T13:39:06Z</time>
      </trkpt>
      <trkpt lat="46.72666" lon="5.96252">
        <ele>632.5</ele>
        <time>2022-01-01T13:39:12Z</time>
      </trkpt>
      <trkpt lat="46.7267" lon="5.96258">
        <ele>632.2</ele>
        <time>2022-01-01T13:39:18Z</time>
      </trkpt>
      <trkpt lat="46.72673" lon="5.96262">
        <ele>632.2</ele>
        <time>2022-01-01T13:39:23Z</time>
      </trkpt>
      <trkpt lat="46.72677" lon="5.96267">
        <ele>632</ele>
        <time>2022-01-01T13:39:28Z</time>
      </trkpt>
      <trkpt lat="46.72679" lon="5.96273">
        <ele>632.3</ele>
        <time>2022-01-01T13:39:34Z</time>
      </trkpt>
      <trkpt lat="46.72682" lon="5.96279">
        <ele>633.4</ele>
        <time>2022-01-01T13:39:40Z</time>
      </trkpt>
      <trkpt lat="46.72684" lon="5.96285">
        <ele>634.8</ele>
        <time>2022-01-01T13:39:46Z</time>
      </trkpt>
      <trkpt lat="46.72686" lon="5.96292">
        <ele>635.3</ele>
        <time>2022-01-01T13:39:52Z</time>
      </trkpt>
      <trkpt lat="46.72689" lon="5.96297">
        <ele>635.1</ele>
        <time>2022-01-01T13:39:57Z</time>
      </trkpt>
      <trkpt lat="46.72693" lon="5.96302">
        <ele>634.7</ele>
        <time>2022-01-01T13:40:02Z</time>
      </trkpt>
      <trkpt lat="46.72697" lon="5.96306">
        <ele>634.5</ele>
        <time>2022-01-01T13:40:07Z</time>
      </trkpt>
      <trkpt lat="46.727" lon="5.96311">
        <ele>634.5</ele>
        <time>2022-01-01T13:40:12Z</time>
      </trkpt>
      <trkpt lat="46.72704" lon="5.96316">
        <ele>634.8</ele>
        <time>2022-01-01T13:40:18Z</time>
      </trkpt>
      <trkpt lat="46.72708" lon="5.96321">
        <ele>635.3</ele>
        <time>2022-01-01T13:40:25Z</time>
      </trkpt>
      <trkpt lat="46.72712" lon="5.96325">
        <ele>636.1</ele>
        <time>2022-01-01T13:40:31Z</time>
      </trkpt>
      <trkpt lat="46.72717" lon="5.96327">
        <ele>637</ele>
        <time>2022-01-01T13:40:36Z</time>
      </trkpt>
      <trkpt lat="46.72721" lon="5.9633">
        <ele>638</ele>
        <time>2022-01-01T13:40:41Z</time>
      </trkpt>
      <trkpt lat="46.72725" lon="5.96333">
        <ele>638.3</ele>
        <time>2022-01-01T13:40:47Z</time>
      </trkpt>
      <trkpt lat="46.72731" lon="5.96333">
        <ele>638.7</ele>
        <time>2022-01-01T13:40:53Z</time>
      </trkpt>
      <trkpt lat="46.72736" lon="5.96334">
        <ele>639.2</ele>
        <time>2022-01-01T13:40:58Z</time>
      </trkpt>
      <trkpt lat="46.7274" lon="5.96337">
        <ele>639.9</ele>
        <time>2022-01-01T13:41:04Z</time>
      </trkpt>
      <trkpt lat="46.72744" lon="5.96341">
        <ele>640.4</ele>
        <time>2022-01-01T13:41:10Z</time>
      </trkpt>
      <trkpt lat="46.72748" lon="5.96345">
        <ele>641</ele>
        <time>2022-01-01T13:41:17Z</time>
      </trkpt>
      <trkpt lat="46.72751" lon="5.96351">
        <ele>641.5</ele>
        <time>2022-01-01T13:41:23Z</time>
      </trkpt>
      <trkpt lat="46.72754" lon="5.96357">
        <ele>641.9</ele>
        <time>2022-01-01T13:41:27Z</time>
      </trkpt>
      <trkpt lat="46.72756" lon="5.96364">
        <ele>641.8</ele>
        <time>2022-01-01T13:41:33Z</time>
      </trkpt>
      <trkpt lat="46.72761" lon="5.96367">
        <ele>641.3</ele>
        <time>2022-01-01T13:41:41Z</time>
      </trkpt>
      <trkpt lat="46.72766" lon="5.96367">
        <ele>641.5</ele>
        <time>2022-01-01T13:41:44Z</time>
      </trkpt>
      <trkpt lat="46.72771" lon="5.96367">
        <ele>642.3</ele>
        <time>2022-01-01T13:41:48Z</time>
      </trkpt>
      <trkpt lat="46.72776" lon="5.96368">
        <ele>643.7</ele>
        <time>2022-01-01T13:41:53Z</time>
      </trkpt>
      <trkpt lat="46.7278" lon="5.9637">
        <ele>647.8</ele>
        <time>2022-01-01T13:42:01Z</time>
      </trkpt>
      <trkpt lat="46.72785" lon="5.96369">
        <ele>649.7</ele>
        <time>2022-01-01T13:42:05Z</time>
      </trkpt>
      <trkpt lat="46.7279" lon="5.96369">
        <ele>650.6</ele>
        <time>2022-01-01T13:42:09Z</time>
      </trkpt>
      <trkpt lat="46.72795" lon="5.96371">
        <ele>652.5</ele>
        <time>2022-01-01T13:42:18Z</time>
      </trkpt>
      <trkpt lat="46.72799" lon="5.9637">
        <ele>653.3</ele>
        <time>2022-01-01T13:42:22Z</time>
      </trkpt>
      <trkpt lat="46.72804" lon="5.96369">
        <ele>653.4</ele>
        <time>2022-01-01T13:42:28Z</time>
      </trkpt>
      <trkpt lat="46.72809" lon="5.96371">
        <ele>653.9</ele>
        <time>2022-01-01T13:42:34Z</time>
      </trkpt>
      <trkpt lat="46.72813" lon="5.96367">
        <ele>656.1</ele>
        <time>2022-01-01T13:43:00Z</time>
      </trkpt>
      <trkpt lat="46.72808" lon="5.96366">
        <ele>657.6</ele>
        <time>2022-01-01T13:43:09Z</time>
      </trkpt>
      <trkpt lat="46.72808" lon="5.96358">
        <ele>658.6</ele>
        <time>2022-01-01T13:43:38Z</time>
      </trkpt>
      <trkpt lat="46.7281" lon="5.96352">
        <ele>658.7</ele>
        <time>2022-01-01T13:43:43Z</time>
      </trkpt>
      <trkpt lat="46.72811" lon="5.96345">
        <ele>657.5</ele>
        <time>2022-01-01T13:43:48Z</time>
      </trkpt>
      <trkpt lat="46.72811" lon="5.96338">
        <ele>655.3</ele>
        <time>2022-01-01T13:43:55Z</time>
      </trkpt>
      <trkpt lat="46.72809" lon="5.96332">
        <ele>653.8</ele>
        <time>2022-01-01T13:44:03Z</time>
      </trkpt>
      <trkpt lat="46.72805" lon="5.96328">
        <ele>653.1</ele>
        <time>2022-01-01T13:44:11Z</time>
      </trkpt>
      <trkpt lat="46.728" lon="5.96324">
        <ele>652.8</ele>
        <time>2022-01-01T13:44:18Z</time>
      </trkpt>
      <trkpt lat="46.72797" lon="5.96318">
        <ele>653.5</ele>
        <time>2022-01-01T13:44:24Z</time>
      </trkpt>
      <trkpt lat="46.72794" lon="5.96313">
        <ele>654.5</ele>
        <time>2022-01-01T13:44:29Z</time>
      </trkpt>
      <trkpt lat="46.72792" lon="5.96307">
        <ele>655.7</ele>
        <time>2022-01-01T13:44:34Z</time>
      </trkpt>
      <trkpt lat="46.7279" lon="5.96301">
        <ele>656.4</ele>
        <time>2022-01-01T13:44:40Z</time>
      </trkpt>
      <trkpt lat="46.72786" lon="5.96296">
        <ele>656.8</ele>
        <time>2022-01-01T13:44:45Z</time>
      </trkpt>
      <trkpt lat="46.72783" lon="5.96291">
        <ele>657.5</ele>
        <time>2022-01-01T13:44:49Z</time>
      </trkpt>
      <trkpt lat="46.7278" lon="5.96286">
        <ele>658.5</ele>
        <time>2022-01-01T13:44:54Z</time>
      </trkpt>
      <trkpt lat="46.72778" lon="5.96279">
        <ele>658.8</ele>
        <time>2022-01-01T13:45:00Z</time>
      </trkpt>
      <trkpt lat="46.72775" lon="5.96274">
        <ele>659</ele>
        <time>2022-01-01T13:45:06Z</time>
      </trkpt>
      <trkpt lat="46.72771" lon="5.96268">
        <ele>658.1</ele>
        <time>2022-01-01T13:45:12Z</time>
      </trkpt>
      <trkpt lat="46.72768" lon="5.96263">
        <ele>657.9</ele>
        <time>2022-01-01T13:45:18Z</time>
      </trkpt>
      <trkpt lat="46.72766" lon="5.96257">
        <ele>657.1</ele>
        <time>2022-01-01T13:45:25Z</time>
      </trkpt>
      <trkpt lat="46.72764" lon="5.9625">
        <ele>656.8</ele>
        <time>2022-01-01T13:45:30Z</time>
      </trkpt>
      <trkpt lat="46.72763" lon="5.96243">
        <ele>656.8</ele>
        <time>2022-01-01T13:45:35Z</time>
      </trkpt>
      <trkpt lat="46.72763" lon="5.96237">
        <ele>657.3</ele>
        <time>2022-01-01T13:45:40Z</time>
      </trkpt>
      <trkpt lat="46.72763" lon="5.9623">
        <ele>657.9</ele>
        <time>2022-01-01T13:45:46Z</time>
      </trkpt>
      <trkpt lat="46.72763" lon="5.96223">
        <ele>658.2</ele>
        <time>2022-01-01T13:45:52Z</time>
      </trkpt>
      <trkpt lat="46.72764" lon="5.96216">
        <ele>658.5</ele>
        <time>2022-01-01T13:45:58Z</time>
      </trkpt>
      <trkpt lat="46.72763" lon="5.96209">
        <ele>658.3</ele>
        <time>2022-01-01T13:46:04Z</time>
      </trkpt>
      <trkpt lat="46.72762" lon="5.96202">
        <ele>658.2</ele>
        <time>2022-01-01T13:46:09Z</time>
      </trkpt>
      <trkpt lat="46.72762" lon="5.96194">
        <ele>658.8</ele>
        <time>2022-01-01T13:46:14Z</time>
      </trkpt>
      <trkpt lat="46.72761" lon="5.96188">
        <ele>659.9</ele>
        <time>2022-01-01T13:46:19Z</time>
      </trkpt>
      <trkpt lat="46.7276" lon="5.96181">
        <ele>661.6</ele>
        <time>2022-01-01T13:46:25Z</time>
      </trkpt>
      <trkpt lat="46.72759" lon="5.96174">
        <ele>663</ele>
        <time>2022-01-01T13:46:32Z</time>
      </trkpt>
      <trkpt lat="46.72758" lon="5.96167">
        <ele>663.5</ele>
        <time>2022-01-01T13:46:38Z</time>
      </trkpt>
      <trkpt lat="46.72758" lon="5.9616">
        <ele>663.8</ele>
        <time>2022-01-01T13:46:45Z</time>
      </trkpt>
      <trkpt lat="46.72757" lon="5.96153">
        <ele>664.8</ele>
        <time>2022-01-01T13:46:51Z</time>
      </trkpt>
      <trkpt lat="46.72757" lon="5.96145">
        <ele>665.8</ele>
        <time>2022-01-01T13:46:57Z</time>
      </trkpt>
      <trkpt lat="46.7276" lon="5.9614">
        <ele>667</ele>
        <time>2022-01-01T13:47:04Z</time>
      </trkpt>
      <trkpt lat="46.72762" lon="5.96134">
        <ele>668.3</ele>
        <time>2022-01-01T13:47:12Z</time>
      </trkpt>
      <trkpt lat="46.72767" lon="5.9613">
        <ele>670</ele>
        <time>2022-01-01T13:47:21Z</time>
      </trkpt>
      <trkpt lat="46.72771" lon="5.96129">
        <ele>670.6</ele>
        <time>2022-01-01T13:47:35Z</time>
      </trkpt>
      <trkpt lat="46.72776" lon="5.96131">
        <ele>670</ele>
        <time>2022-01-01T13:47:41Z</time>
      </trkpt>
      <trkpt lat="46.7278" lon="5.96136">
        <ele>669.9</ele>
        <time>2022-01-01T13:47:47Z</time>
      </trkpt>
      <trkpt lat="46.72783" lon="5.96141">
        <ele>670.2</ele>
        <time>2022-01-01T13:47:52Z</time>
      </trkpt>
      <trkpt lat="46.72787" lon="5.96144">
        <ele>671.2</ele>
        <time>2022-01-01T13:47:57Z</time>
      </trkpt>
      <trkpt lat="46.72791" lon="5.96149">
        <ele>672.3</ele>
        <time>2022-01-01T13:48:02Z</time>
      </trkpt>
      <trkpt lat="46.72795" lon="5.96153">
        <ele>672.9</ele>
        <time>2022-01-01T13:48:07Z</time>
      </trkpt>
      <trkpt lat="46.72799" lon="5.96158">
        <ele>673.2</ele>
        <time>2022-01-01T13:48:12Z</time>
      </trkpt>
      <trkpt lat="46.72803" lon="5.96163">
        <ele>673.5</ele>
        <time>2022-01-01T13:48:18Z</time>
      </trkpt>
      <trkpt lat="46.72805" lon="5.96169">
        <ele>673.6</ele>
        <time>2022-01-01T13:48:25Z</time>
      </trkpt>
      <trkpt lat="46.72809" lon="5.96174">
        <ele>673.6</ele>
        <time>2022-01-01T13:48:30Z</time>
      </trkpt>
      <trkpt lat="46.72813" lon="5.96178">
        <ele>673.9</ele>
        <time>2022-01-01T13:48:35Z</time>
      </trkpt>
      <trkpt lat="46.72817" lon="5.96182">
        <ele>674.7</ele>
        <time>2022-01-01T13:48:41Z</time>
      </trkpt>
      <trkpt lat="46.72822" lon="5.96185">
        <ele>676</ele>
        <time>2022-01-01T13:48:47Z</time>
      </trkpt>
      <trkpt lat="46.72826" lon="5.96188">
        <ele>676.9</ele>
        <time>2022-01-01T13:48:53Z</time>
      </trkpt>
      <trkpt lat="46.7283" lon="5.96192">
        <ele>677.5</ele>
        <time>2022-01-01T13:48:59Z</time>
      </trkpt>
      <trkpt lat="46.72834" lon="5.96198">
        <ele>678.2</ele>
        <time>2022-01-01T13:49:05Z</time>
      </trkpt>
      <trkpt lat="46.72837" lon="5.96202">
        <ele>679.1</ele>
        <time>2022-01-01T13:49:11Z</time>
      </trkpt>
      <trkpt lat="46.72842" lon="5.96205">
        <ele>679.5</ele>
        <time>2022-01-01T13:49:17Z</time>
      </trkpt>
      <trkpt lat="46.72846" lon="5.96209">
        <ele>680.4</ele>
        <time>2022-01-01T13:49:22Z</time>
      </trkpt>
      <trkpt lat="46.72851" lon="5.96213">
        <ele>681.6</ele>
        <time>2022-01-01T13:49:27Z</time>
      </trkpt>
      <trkpt lat="46.72855" lon="5.96217">
        <ele>682.6</ele>
        <time>2022-01-01T13:49:34Z</time>
      </trkpt>
      <trkpt lat="46.72859" lon="5.96222">
        <ele>683</ele>
        <time>2022-01-01T13:49:41Z</time>
      </trkpt>
      <trkpt lat="46.72862" lon="5.96228">
        <ele>683.5</ele>
        <time>2022-01-01T13:49:46Z</time>
      </trkpt>
      <trkpt lat="46.72866" lon="5.96233">
        <ele>684.5</ele>
        <time>2022-01-01T13:49:52Z</time>
      </trkpt>
      <trkpt lat="46.72869" lon="5.96239">
        <ele>685.7</ele>
        <time>2022-01-01T13:49:58Z</time>
      </trkpt>
      <trkpt lat="46.72873" lon="5.96245">
        <ele>686.1</ele>
        <time>2022-01-01T13:50:04Z</time>
      </trkpt>
      <trkpt lat="46.72876" lon="5.9625">
        <ele>686.8</ele>
        <time>2022-01-01T13:50:10Z</time>
      </trkpt>
      <trkpt lat="46.7288" lon="5.96256">
        <ele>687</ele>
        <time>2022-01-01T13:50:15Z</time>
      </trkpt>
      <trkpt lat="46.72884" lon="5.96261">
        <ele>687.3</ele>
        <time>2022-01-01T13:50:20Z</time>
      </trkpt>
      <trkpt lat="46.72887" lon="5.96267">
        <ele>687.5</ele>
        <time>2022-01-01T13:50:26Z</time>
      </trkpt>
      <trkpt lat="46.72891" lon="5.96271">
        <ele>687.5</ele>
        <time>2022-01-01T13:50:31Z</time>
      </trkpt>
      <trkpt lat="46.72894" lon="5.96276">
        <ele>687.7</ele>
        <time>2022-01-01T13:50:36Z</time>
      </trkpt>
      <trkpt lat="46.72897" lon="5.96282">
        <ele>687.7</ele>
        <time>2022-01-01T13:50:41Z</time>
      </trkpt>
      <trkpt lat="46.72901" lon="5.96287">
        <ele>687.5</ele>
        <time>2022-01-01T13:50:46Z</time>
      </trkpt>
      <trkpt lat="46.72903" lon="5.96294">
        <ele>688.2</ele>
        <time>2022-01-01T13:50:52Z</time>
      </trkpt>
      <trkpt lat="46.72905" lon="5.96301">
        <ele>689.5</ele>
        <time>2022-01-01T13:50:58Z</time>
      </trkpt>
      <trkpt lat="46.72909" lon="5.96305">
        <ele>690.6</ele>
        <time>2022-01-01T13:51:04Z</time>
      </trkpt>
      <trkpt lat="46.72913" lon="5.96309">
        <ele>691.2</ele>
        <time>2022-01-01T13:51:09Z</time>
      </trkpt>
      <trkpt lat="46.72917" lon="5.96313">
        <ele>691.5</ele>
        <time>2022-01-01T13:51:15Z</time>
      </trkpt>
      <trkpt lat="46.72922" lon="5.96315">
        <ele>691.2</ele>
        <time>2022-01-01T13:51:21Z</time>
      </trkpt>
      <trkpt lat="46.72926" lon="5.96317">
        <ele>691.2</ele>
        <time>2022-01-01T13:51:26Z</time>
      </trkpt>
      <trkpt lat="46.72931" lon="5.9632">
        <ele>691.2</ele>
        <time>2022-01-01T13:51:31Z</time>
      </trkpt>
      <trkpt lat="46.72936" lon="5.96322">
        <ele>691.3</ele>
        <time>2022-01-01T13:51:36Z</time>
      </trkpt>
      <trkpt lat="46.7294" lon="5.96326">
        <ele>691.4</ele>
        <time>2022-01-01T13:51:42Z</time>
      </trkpt>
      <trkpt lat="46.72944" lon="5.96329">
        <ele>691.7</ele>
        <time>2022-01-01T13:51:47Z</time>
      </trkpt>
      <trkpt lat="46.72949" lon="5.96331">
        <ele>692.1</ele>
        <time>2022-01-01T13:51:52Z</time>
      </trkpt>
      <trkpt lat="46.72953" lon="5.96333">
        <ele>692.3</ele>
        <time>2022-01-01T13:51:57Z</time>
      </trkpt>
      <trkpt lat="46.72958" lon="5.96336">
        <ele>692.5</ele>
        <time>2022-01-01T13:52:02Z</time>
      </trkpt>
      <trkpt lat="46.72962" lon="5.96337">
        <ele>693.1</ele>
        <time>2022-01-01T13:52:09Z</time>
      </trkpt>
      <trkpt lat="46.72967" lon="5.9634">
        <ele>694.2</ele>
        <time>2022-01-01T13:52:20Z</time>
      </trkpt>
      <trkpt lat="46.72971" lon="5.96343">
        <ele>694.9</ele>
        <time>2022-01-01T13:52:25Z</time>
      </trkpt>
      <trkpt lat="46.72975" lon="5.96347">
        <ele>695.6</ele>
        <time>2022-01-01T13:52:32Z</time>
      </trkpt>
      <trkpt lat="46.72979" lon="5.9635">
        <ele>696</ele>
        <time>2022-01-01T13:52:39Z</time>
      </trkpt>
      <trkpt lat="46.72984" lon="5.96353">
        <ele>696.8</ele>
        <time>2022-01-01T13:52:46Z</time>
      </trkpt>
      <trkpt lat="46.72989" lon="5.96354">
        <ele>697.2</ele>
        <time>2022-01-01T13:52:55Z</time>
      </trkpt>
      <trkpt lat="46.72993" lon="5.96356">
        <ele>699.6</ele>
        <time>2022-01-01T13:53:13Z</time>
      </trkpt>
      <trkpt lat="46.72998" lon="5.96356">
        <ele>700.3</ele>
        <time>2022-01-01T13:53:23Z</time>
      </trkpt>
      <trkpt lat="46.73003" lon="5.96357">
        <ele>699.1</ele>
        <time>2022-01-01T13:54:20Z</time>
      </trkpt>
      <trkpt lat="46.73007" lon="5.96357">
        <ele>699.4</ele>
        <time>2022-01-01T13:54:39Z</time>
      </trkpt>
      <trkpt lat="46.73012" lon="5.96362">
        <ele>700.4</ele>
        <time>2022-01-01T13:56:54Z</time>
      </trkpt>
      <trkpt lat="46.73016" lon="5.96363">
        <ele>700.7</ele>
        <time>2022-01-01T13:56:59Z</time>
      </trkpt>
      <trkpt lat="46.73021" lon="5.96365">
        <ele>701.1</ele>
        <time>2022-01-01T13:57:05Z</time>
      </trkpt>
      <trkpt lat="46.73026" lon="5.96367">
        <ele>701.6</ele>
        <time>2022-01-01T13:57:11Z</time>
      </trkpt>
      <trkpt lat="46.73031" lon="5.96368">
        <ele>701.1</ele>
        <time>2022-01-01T13:57:18Z</time>
      </trkpt>
      <trkpt lat="46.73036" lon="5.96369">
        <ele>700.2</ele>
        <time>2022-01-01T13:57:25Z</time>
      </trkpt>
      <trkpt lat="46.7304" lon="5.96372">
        <ele>699.9</ele>
        <time>2022-01-01T13:57:32Z</time>
      </trkpt>
      <trkpt lat="46.73045" lon="5.96375">
        <ele>699.4</ele>
        <time>2022-01-01T13:57:38Z</time>
      </trkpt>
      <trkpt lat="46.73049" lon="5.96378">
        <ele>699.2</ele>
        <time>2022-01-01T13:57:43Z</time>
      </trkpt>
      <trkpt lat="46.73054" lon="5.96381">
        <ele>699.6</ele>
        <time>2022-01-01T13:57:48Z</time>
      </trkpt>
      <trkpt lat="46.73059" lon="5.96383">
        <ele>700.7</ele>
        <time>2022-01-01T13:57:55Z</time>
      </trkpt>
      <trkpt lat="46.73064" lon="5.96385">
        <ele>701.8</ele>
        <time>2022-01-01T13:58:01Z</time>
      </trkpt>
      <trkpt lat="46.73069" lon="5.96387">
        <ele>703.4</ele>
        <time>2022-01-01T13:58:07Z</time>
      </trkpt>
      <trkpt lat="46.73073" lon="5.9639">
        <ele>704.7</ele>
        <time>2022-01-01T13:58:13Z</time>
      </trkpt>
      <trkpt lat="46.73078" lon="5.96393">
        <ele>705.8</ele>
        <time>2022-01-01T13:58:19Z</time>
      </trkpt>
      <trkpt lat="46.73082" lon="5.96397">
        <ele>706.6</ele>
        <time>2022-01-01T13:58:25Z</time>
      </trkpt>
      <trkpt lat="46.73087" lon="5.96399">
        <ele>707.5</ele>
        <time>2022-01-01T13:58:30Z</time>
      </trkpt>
      <trkpt lat="46.73092" lon="5.96398">
        <ele>708.4</ele>
        <time>2022-01-01T13:58:36Z</time>
      </trkpt>
      <trkpt lat="46.73097" lon="5.96398">
        <ele>709.4</ele>
        <time>2022-01-01T13:58:42Z</time>
      </trkpt>
      <trkpt lat="46.73102" lon="5.96396">
        <ele>710.5</ele>
        <time>2022-01-01T13:58:47Z</time>
      </trkpt>
      <trkpt lat="46.73106" lon="5.96391">
        <ele>711.4</ele>
        <time>2022-01-01T13:58:52Z</time>
      </trkpt>
      <trkpt lat="46.73109" lon="5.96386">
        <ele>712.9</ele>
        <time>2022-01-01T13:58:58Z</time>
      </trkpt>
      <trkpt lat="46.73105" lon="5.9639">
        <ele>713.9</ele>
        <time>2022-01-01T13:59:34Z</time>
      </trkpt>
      <trkpt lat="46.73101" lon="5.96395">
        <ele>712.9</ele>
        <time>2022-01-01T13:59:41Z</time>
      </trkpt>
      <trkpt lat="46.73096" lon="5.96396">
        <ele>711.6</ele>
        <time>2022-01-01T13:59:48Z</time>
      </trkpt>
      <trkpt lat="46.73092" lon="5.96396">
        <ele>710.9</ele>
        <time>2022-01-01T13:59:54Z</time>
      </trkpt>
      <trkpt lat="46.73087" lon="5.96397">
        <ele>711</ele>
        <time>2022-01-01T14:00:00Z</time>
      </trkpt>
      <trkpt lat="46.73083" lon="5.96394">
        <ele>711.8</ele>
        <time>2022-01-01T14:00:06Z</time>
      </trkpt>
      <trkpt lat="46.73079" lon="5.96391">
        <ele>711.6</ele>
        <time>2022-01-01T14:00:13Z</time>
      </trkpt>
      <trkpt lat="46.73075" lon="5.96387">
        <ele>711.1</ele>
        <time>2022-01-01T14:00:19Z</time>
      </trkpt>
      <trkpt lat="46.7307" lon="5.96384">
        <ele>710.7</ele>
        <time>2022-01-01T14:00:24Z</time>
      </trkpt>
      <trkpt lat="46.73067" lon="5.96379">
        <ele>709.8</ele>
        <time>2022-01-01T14:00:31Z</time>
      </trkpt>
      <trkpt lat="46.73067" lon="5.96372">
        <ele>709.6</ele>
        <time>2022-01-01T14:00:35Z</time>
      </trkpt>
      <trkpt lat="46.73068" lon="5.96365">
        <ele>709.9</ele>
        <time>2022-01-01T14:00:40Z</time>
      </trkpt>
      <trkpt lat="46.73071" lon="5.96358">
        <ele>709.8</ele>
        <time>2022-01-01T14:00:47Z</time>
      </trkpt>
      <trkpt lat="46.73068" lon="5.96364">
        <ele>709.5</ele>
        <time>2022-01-01T14:01:37Z</time>
      </trkpt>
      <trkpt lat="46.73068" lon="5.96371">
        <ele>709.9</ele>
        <time>2022-01-01T14:01:42Z</time>
      </trkpt>
      <trkpt lat="46.73067" lon="5.96379">
        <ele>710.6</ele>
        <time>2022-01-01T14:01:48Z</time>
      </trkpt>
      <trkpt lat="46.73062" lon="5.9638">
        <ele>711.8</ele>
        <time>2022-01-01T14:01:55Z</time>
      </trkpt>
      <trkpt lat="46.73058" lon="5.96379">
        <ele>712.4</ele>
        <time>2022-01-01T14:02:01Z</time>
      </trkpt>
      <trkpt lat="46.73053" lon="5.96377">
        <ele>711.7</ele>
        <time>2022-01-01T14:02:08Z</time>
      </trkpt>
      <trkpt lat="46.73048" lon="5.96375">
        <ele>710.5</ele>
        <time>2022-01-01T14:02:16Z</time>
      </trkpt>
      <trkpt lat="46.73044" lon="5.96374">
        <ele>706.6</ele>
        <time>2022-01-01T14:02:47Z</time>
      </trkpt>
      <trkpt lat="46.7304" lon="5.96369">
        <ele>705.7</ele>
        <time>2022-01-01T14:02:54Z</time>
      </trkpt>
      <trkpt lat="46.73035" lon="5.96368">
        <ele>705.4</ele>
        <time>2022-01-01T14:03:01Z</time>
      </trkpt>
      <trkpt lat="46.7303" lon="5.96368">
        <ele>705.9</ele>
        <time>2022-01-01T14:03:07Z</time>
      </trkpt>
      <trkpt lat="46.73025" lon="5.96367">
        <ele>706</ele>
        <time>2022-01-01T14:03:12Z</time>
      </trkpt>
      <trkpt lat="46.73021" lon="5.96365">
        <ele>705.6</ele>
        <time>2022-01-01T14:03:17Z</time>
      </trkpt>
      <trkpt lat="46.73016" lon="5.96363">
        <ele>705.1</ele>
        <time>2022-01-01T14:03:22Z</time>
      </trkpt>
      <trkpt lat="46.73012" lon="5.9636">
        <ele>705</ele>
        <time>2022-01-01T14:03:26Z</time>
      </trkpt>
      <trkpt lat="46.73007" lon="5.96359">
        <ele>704.6</ele>
        <time>2022-01-01T14:03:31Z</time>
      </trkpt>
      <trkpt lat="46.73003" lon="5.96357">
        <ele>704.4</ele>
        <time>2022-01-01T14:03:37Z</time>
      </trkpt>
      <trkpt lat="46.72998" lon="5.96355">
        <ele>704.2</ele>
        <time>2022-01-01T14:03:42Z</time>
      </trkpt>
      <trkpt lat="46.72993" lon="5.96353">
        <ele>703.6</ele>
        <time>2022-01-01T14:03:47Z</time>
      </trkpt>
      <trkpt lat="46.72988" lon="5.96352">
        <ele>702.3</ele>
        <time>2022-01-01T14:03:53Z</time>
      </trkpt>
      <trkpt lat="46.72983" lon="5.96351">
        <ele>700.8</ele>
        <time>2022-01-01T14:03:59Z</time>
      </trkpt>
      <trkpt lat="46.72979" lon="5.96348">
        <ele>698.5</ele>
        <time>2022-01-01T14:04:10Z</time>
      </trkpt>
      <trkpt lat="46.72974" lon="5.96346">
        <ele>697.9</ele>
        <time>2022-01-01T14:04:23Z</time>
      </trkpt>
      <trkpt lat="46.72969" lon="5.96343">
        <ele>698.1</ele>
        <time>2022-01-01T14:04:29Z</time>
      </trkpt>
      <trkpt lat="46.72965" lon="5.9634">
        <ele>697.5</ele>
        <time>2022-01-01T14:04:36Z</time>
      </trkpt>
      <trkpt lat="46.72961" lon="5.96337">
        <ele>696.9</ele>
        <time>2022-01-01T14:04:41Z</time>
      </trkpt>
      <trkpt lat="46.72957" lon="5.96334">
        <ele>696.3</ele>
        <time>2022-01-01T14:04:45Z</time>
      </trkpt>
      <trkpt lat="46.72952" lon="5.96332">
        <ele>695.4</ele>
        <time>2022-01-01T14:04:51Z</time>
      </trkpt>
      <trkpt lat="46.72947" lon="5.96328">
        <ele>695.3</ele>
        <time>2022-01-01T14:04:56Z</time>
      </trkpt>
      <trkpt lat="46.72943" lon="5.96325">
        <ele>694.7</ele>
        <time>2022-01-01T14:05:01Z</time>
      </trkpt>
      <trkpt lat="46.72938" lon="5.96324">
        <ele>693.8</ele>
        <time>2022-01-01T14:05:06Z</time>
      </trkpt>
      <trkpt lat="46.72933" lon="5.96321">
        <ele>692.8</ele>
        <time>2022-01-01T14:05:13Z</time>
      </trkpt>
      <trkpt lat="46.72928" lon="5.96318">
        <ele>692.5</ele>
        <time>2022-01-01T14:05:19Z</time>
      </trkpt>
      <trkpt lat="46.72924" lon="5.96316">
        <ele>692.4</ele>
        <time>2022-01-01T14:05:23Z</time>
      </trkpt>
      <trkpt lat="46.7292" lon="5.96312">
        <ele>692.2</ele>
        <time>2022-01-01T14:05:27Z</time>
      </trkpt>
      <trkpt lat="46.72915" lon="5.96309">
        <ele>692.6</ele>
        <time>2022-01-01T14:05:31Z</time>
      </trkpt>
      <trkpt lat="46.72911" lon="5.96305">
        <ele>693.1</ele>
        <time>2022-01-01T14:05:36Z</time>
      </trkpt>
      <trkpt lat="46.72908" lon="5.963">
        <ele>692.7</ele>
        <time>2022-01-01T14:05:41Z</time>
      </trkpt>
      <trkpt lat="46.72905" lon="5.96294">
        <ele>692.3</ele>
        <time>2022-01-01T14:05:46Z</time>
      </trkpt>
      <trkpt lat="46.72902" lon="5.96288">
        <ele>692</ele>
        <time>2022-01-01T14:05:50Z</time>
      </trkpt>
      <trkpt lat="46.72899" lon="5.96282">
        <ele>691.4</ele>
        <time>2022-01-01T14:05:55Z</time>
      </trkpt>
      <trkpt lat="46.72896" lon="5.96276">
        <ele>690.8</ele>
        <time>2022-01-01T14:06:00Z</time>
      </trkpt>
      <trkpt lat="46.72892" lon="5.9627">
        <ele>689.9</ele>
        <time>2022-01-01T14:06:05Z</time>
      </trkpt>
      <trkpt lat="46.72889" lon="5.96266">
        <ele>689.9</ele>
        <time>2022-01-01T14:06:09Z</time>
      </trkpt>
      <trkpt lat="46.72885" lon="5.96261">
        <ele>690</ele>
        <time>2022-01-01T14:06:14Z</time>
      </trkpt>
      <trkpt lat="46.72882" lon="5.96256">
        <ele>690.5</ele>
        <time>2022-01-01T14:06:18Z</time>
      </trkpt>
      <trkpt lat="46.72878" lon="5.96251">
        <ele>689.9</ele>
        <time>2022-01-01T14:06:24Z</time>
      </trkpt>
      <trkpt lat="46.72874" lon="5.96246">
        <ele>688.8</ele>
        <time>2022-01-01T14:06:29Z</time>
      </trkpt>
      <trkpt lat="46.72871" lon="5.9624">
        <ele>687.9</ele>
        <time>2022-01-01T14:06:34Z</time>
      </trkpt>
      <trkpt lat="46.72868" lon="5.96234">
        <ele>687.7</ele>
        <time>2022-01-01T14:06:39Z</time>
      </trkpt>
      <trkpt lat="46.72865" lon="5.96229">
        <ele>687.8</ele>
        <time>2022-01-01T14:06:44Z</time>
      </trkpt>
      <trkpt lat="46.72862" lon="5.96224">
        <ele>688</ele>
        <time>2022-01-01T14:06:49Z</time>
      </trkpt>
      <trkpt lat="46.72858" lon="5.9622">
        <ele>687.8</ele>
        <time>2022-01-01T14:06:55Z</time>
      </trkpt>
      <trkpt lat="46.72854" lon="5.96216">
        <ele>687.6</ele>
        <time>2022-01-01T14:07:01Z</time>
      </trkpt>
      <trkpt lat="46.7285" lon="5.96211">
        <ele>687.3</ele>
        <time>2022-01-01T14:07:07Z</time>
      </trkpt>
      <trkpt lat="46.72845" lon="5.96207">
        <ele>686.1</ele>
        <time>2022-01-01T14:07:13Z</time>
      </trkpt>
      <trkpt lat="46.72841" lon="5.96203">
        <ele>685.2</ele>
        <time>2022-01-01T14:07:18Z</time>
      </trkpt>
      <trkpt lat="46.72836" lon="5.96198">
        <ele>684</ele>
        <time>2022-01-01T14:07:24Z</time>
      </trkpt>
      <trkpt lat="46.72832" lon="5.96194">
        <ele>683</ele>
        <time>2022-01-01T14:07:29Z</time>
      </trkpt>
      <trkpt lat="46.72828" lon="5.9619">
        <ele>681.8</ele>
        <time>2022-01-01T14:07:34Z</time>
      </trkpt>
      <trkpt lat="46.72823" lon="5.96187">
        <ele>681</ele>
        <time>2022-01-01T14:07:39Z</time>
      </trkpt>
      <trkpt lat="46.72819" lon="5.96183">
        <ele>681</ele>
        <time>2022-01-01T14:07:43Z</time>
      </trkpt>
      <trkpt lat="46.72815" lon="5.9618">
        <ele>681</ele>
        <time>2022-01-01T14:07:48Z</time>
      </trkpt>
      <trkpt lat="46.72811" lon="5.96176">
        <ele>680.5</ele>
        <time>2022-01-01T14:07:53Z</time>
      </trkpt>
      <trkpt lat="46.72807" lon="5.96172">
        <ele>680.3</ele>
        <time>2022-01-01T14:07:58Z</time>
      </trkpt>
      <trkpt lat="46.72803" lon="5.96167">
        <ele>680</ele>
        <time>2022-01-01T14:08:04Z</time>
      </trkpt>
      <trkpt lat="46.728" lon="5.96162">
        <ele>679.8</ele>
        <time>2022-01-01T14:08:10Z</time>
      </trkpt>
      <trkpt lat="46.72797" lon="5.96156">
        <ele>679.6</ele>
        <time>2022-01-01T14:08:15Z</time>
      </trkpt>
      <trkpt lat="46.72793" lon="5.96151">
        <ele>679.1</ele>
        <time>2022-01-01T14:08:20Z</time>
      </trkpt>
      <trkpt lat="46.72789" lon="5.96146">
        <ele>678.7</ele>
        <time>2022-01-01T14:08:26Z</time>
      </trkpt>
      <trkpt lat="46.72786" lon="5.96141">
        <ele>677.8</ele>
        <time>2022-01-01T14:08:31Z</time>
      </trkpt>
      <trkpt lat="46.72782" lon="5.96137">
        <ele>677.2</ele>
        <time>2022-01-01T14:08:36Z</time>
      </trkpt>
      <trkpt lat="46.72779" lon="5.9613">
        <ele>676.1</ele>
        <time>2022-01-01T14:08:42Z</time>
      </trkpt>
      <trkpt lat="46.72778" lon="5.96124">
        <ele>674.8</ele>
        <time>2022-01-01T14:08:57Z</time>
      </trkpt>
      <trkpt lat="46.72773" lon="5.96128">
        <ele>675.4</ele>
        <time>2022-01-01T14:09:03Z</time>
      </trkpt>
      <trkpt lat="46.72768" lon="5.96128">
        <ele>676.5</ele>
        <time>2022-01-01T14:09:09Z</time>
      </trkpt>
      <trkpt lat="46.72763" lon="5.96126">
        <ele>676.7</ele>
        <time>2022-01-01T14:09:14Z</time>
      </trkpt>
      <trkpt lat="46.72759" lon="5.96124">
        <ele>676.2</ele>
        <time>2022-01-01T14:09:19Z</time>
      </trkpt>
      <trkpt lat="46.72755" lon="5.96121">
        <ele>675.1</ele>
        <time>2022-01-01T14:09:25Z</time>
      </trkpt>
      <trkpt lat="46.7275" lon="5.96118">
        <ele>674.4</ele>
        <time>2022-01-01T14:09:31Z</time>
      </trkpt>
      <trkpt lat="46.72746" lon="5.96114">
        <ele>673.4</ele>
        <time>2022-01-01T14:09:37Z</time>
      </trkpt>
      <trkpt lat="46.72741" lon="5.9611">
        <ele>672.3</ele>
        <time>2022-01-01T14:09:43Z</time>
      </trkpt>
      <trkpt lat="46.72737" lon="5.96106">
        <ele>671.5</ele>
        <time>2022-01-01T14:09:49Z</time>
      </trkpt>
      <trkpt lat="46.72735" lon="5.961">
        <ele>670.7</ele>
        <time>2022-01-01T14:09:55Z</time>
      </trkpt>
      <trkpt lat="46.72731" lon="5.96096">
        <ele>669.9</ele>
        <time>2022-01-01T14:10:09Z</time>
      </trkpt>
      <trkpt lat="46.72727" lon="5.96091">
        <ele>669.3</ele>
        <time>2022-01-01T14:10:29Z</time>
      </trkpt>
      <trkpt lat="46.72724" lon="5.96086">
        <ele>669.3</ele>
        <time>2022-01-01T14:10:35Z</time>
      </trkpt>
      <trkpt lat="46.7272" lon="5.96082">
        <ele>669.1</ele>
        <time>2022-01-01T14:10:41Z</time>
      </trkpt>
      <trkpt lat="46.72715" lon="5.96081">
        <ele>669</ele>
        <time>2022-01-01T14:10:48Z</time>
      </trkpt>
      <trkpt lat="46.7271" lon="5.96081">
        <ele>668.5</ele>
        <time>2022-01-01T14:10:55Z</time>
      </trkpt>
      <trkpt lat="46.72705" lon="5.96081">
        <ele>667.7</ele>
        <time>2022-01-01T14:11:02Z</time>
      </trkpt>
      <trkpt lat="46.727" lon="5.96083">
        <ele>666.4</ele>
        <time>2022-01-01T14:11:10Z</time>
      </trkpt>
      <trkpt lat="46.72695" lon="5.96084">
        <ele>664.3</ele>
        <time>2022-01-01T14:11:18Z</time>
      </trkpt>
      <trkpt lat="46.7269" lon="5.96085">
        <ele>662.2</ele>
        <time>2022-01-01T14:11:26Z</time>
      </trkpt>
      <trkpt lat="46.72686" lon="5.96084">
        <ele>660.5</ele>
        <time>2022-01-01T14:11:33Z</time>
      </trkpt>
      <trkpt lat="46.72682" lon="5.96081">
        <ele>659.7</ele>
        <time>2022-01-01T14:11:40Z</time>
      </trkpt>
      <trkpt lat="46.72677" lon="5.96081">
        <ele>658.1</ele>
        <time>2022-01-01T14:11:49Z</time>
      </trkpt>
      <trkpt lat="46.72672" lon="5.96079">
        <ele>657</ele>
        <time>2022-01-01T14:11:55Z</time>
      </trkpt>
      <trkpt lat="46.72668" lon="5.96077">
        <ele>655.2</ele>
        <time>2022-01-01T14:12:03Z</time>
      </trkpt>
      <trkpt lat="46.72664" lon="5.96073">
        <ele>654.2</ele>
        <time>2022-01-01T14:12:10Z</time>
      </trkpt>
      <trkpt lat="46.72659" lon="5.96071">
        <ele>653.4</ele>
        <time>2022-01-01T14:12:18Z</time>
      </trkpt>
      <trkpt lat="46.72654" lon="5.96069">
        <ele>652.4</ele>
        <time>2022-01-01T14:12:24Z</time>
      </trkpt>
      <trkpt lat="46.72649" lon="5.96068">
        <ele>651</ele>
        <time>2022-01-01T14:12:29Z</time>
      </trkpt>
      <trkpt lat="46.72646" lon="5.96064">
        <ele>649.4</ele>
        <time>2022-01-01T14:12:35Z</time>
      </trkpt>
      <trkpt lat="46.72641" lon="5.96062">
        <ele>647.4</ele>
        <time>2022-01-01T14:12:42Z</time>
      </trkpt>
      <trkpt lat="46.72636" lon="5.96059">
        <ele>646.3</ele>
        <time>2022-01-01T14:12:47Z</time>
      </trkpt>
      <trkpt lat="46.72631" lon="5.96056">
        <ele>646.2</ele>
        <time>2022-01-01T14:12:52Z</time>
      </trkpt>
      <trkpt lat="46.72626" lon="5.96054">
        <ele>646.1</ele>
        <time>2022-01-01T14:12:57Z</time>
      </trkpt>
      <trkpt lat="46.72622" lon="5.9605">
        <ele>644.7</ele>
        <time>2022-01-01T14:13:04Z</time>
      </trkpt>
      <trkpt lat="46.72617" lon="5.96048">
        <ele>643.3</ele>
        <time>2022-01-01T14:13:10Z</time>
      </trkpt>
      <trkpt lat="46.72612" lon="5.96048">
        <ele>641.8</ele>
        <time>2022-01-01T14:13:17Z</time>
      </trkpt>
      <trkpt lat="46.72608" lon="5.96047">
        <ele>641.3</ele>
        <time>2022-01-01T14:13:21Z</time>
      </trkpt>
      <trkpt lat="46.72603" lon="5.96045">
        <ele>640.7</ele>
        <time>2022-01-01T14:13:26Z</time>
      </trkpt>
      <trkpt lat="46.72598" lon="5.96041">
        <ele>639.8</ele>
        <time>2022-01-01T14:13:31Z</time>
      </trkpt>
      <trkpt lat="46.72594" lon="5.96038">
        <ele>638.8</ele>
        <time>2022-01-01T14:13:37Z</time>
      </trkpt>
      <trkpt lat="46.7259" lon="5.96035">
        <ele>638</ele>
        <time>2022-01-01T14:13:44Z</time>
      </trkpt>
      <trkpt lat="46.72585" lon="5.96033">
        <ele>637.2</ele>
        <time>2022-01-01T14:13:50Z</time>
      </trkpt>
      <trkpt lat="46.7258" lon="5.96034">
        <ele>636.3</ele>
        <time>2022-01-01T14:13:55Z</time>
      </trkpt>
      <trkpt lat="46.72575" lon="5.96033">
        <ele>635.8</ele>
        <time>2022-01-01T14:14:01Z</time>
      </trkpt>
      <trkpt lat="46.7257" lon="5.96032">
        <ele>635.3</ele>
        <time>2022-01-01T14:14:07Z</time>
      </trkpt>
      <trkpt lat="46.72565" lon="5.96032">
        <ele>634.1</ele>
        <time>2022-01-01T14:14:15Z</time>
      </trkpt>
      <trkpt lat="46.7256" lon="5.96032">
        <ele>632.6</ele>
        <time>2022-01-01T14:14:22Z</time>
      </trkpt>
      <trkpt lat="46.72556" lon="5.96033">
        <ele>630.8</ele>
        <time>2022-01-01T14:14:30Z</time>
      </trkpt>
      <trkpt lat="46.72552" lon="5.96029">
        <ele>629.3</ele>
        <time>2022-01-01T14:14:37Z</time>
      </trkpt>
      <trkpt lat="46.72553" lon="5.96022">
        <ele>627.7</ele>
        <time>2022-01-01T14:14:44Z</time>
      </trkpt>
      <trkpt lat="46.72555" lon="5.96015">
        <ele>626.6</ele>
        <time>2022-01-01T14:14:50Z</time>
      </trkpt>
      <trkpt lat="46.72558" lon="5.9601">
        <ele>625.6</ele>
        <time>2022-01-01T14:14:55Z</time>
      </trkpt>
      <trkpt lat="46.72562" lon="5.96007">
        <ele>624.9</ele>
        <time>2022-01-01T14:15:01Z</time>
      </trkpt>
      <trkpt lat="46.72567" lon="5.96006">
        <ele>624.4</ele>
        <time>2022-01-01T14:15:07Z</time>
      </trkpt>
      <trkpt lat="46.72571" lon="5.96001">
        <ele>624.4</ele>
        <time>2022-01-01T14:15:15Z</time>
      </trkpt>
      <trkpt lat="46.72576" lon="5.95999">
        <ele>625.8</ele>
        <time>2022-01-01T14:15:20Z</time>
      </trkpt>
      <trkpt lat="46.7258" lon="5.95996">
        <ele>627.1</ele>
        <time>2022-01-01T14:15:24Z</time>
      </trkpt>
      <trkpt lat="46.72584" lon="5.95992">
        <ele>629.5</ele>
        <time>2022-01-01T14:15:33Z</time>
      </trkpt>
      <trkpt lat="46.72588" lon="5.95991">
        <ele>629.9</ele>
        <time>2022-01-01T14:15:38Z</time>
      </trkpt>
      <trkpt lat="46.72594" lon="5.95988">
        <ele>629.7</ele>
        <time>2022-01-01T14:15:45Z</time>
      </trkpt>
      <trkpt lat="46.72598" lon="5.95986">
        <ele>629</ele>
        <time>2022-01-01T14:15:55Z</time>
      </trkpt>
      <trkpt lat="46.72602" lon="5.95982">
        <ele>628.6</ele>
        <time>2022-01-01T14:16:00Z</time>
      </trkpt>
      <trkpt lat="46.72607" lon="5.95979">
        <ele>628.6</ele>
        <time>2022-01-01T14:16:05Z</time>
      </trkpt>
      <trkpt lat="46.72613" lon="5.95976">
        <ele>629.1</ele>
        <time>2022-01-01T14:16:10Z</time>
      </trkpt>
      <trkpt lat="46.72617" lon="5.95972">
        <ele>629.9</ele>
        <time>2022-01-01T14:16:15Z</time>
      </trkpt>
      <trkpt lat="46.72621" lon="5.95968">
        <ele>631.7</ele>
        <time>2022-01-01T14:16:21Z</time>
      </trkpt>
      <trkpt lat="46.72626" lon="5.95965">
        <ele>633.3</ele>
        <time>2022-01-01T14:16:30Z</time>
      </trkpt>
      <trkpt lat="46.7263" lon="5.95963">
        <ele>633.2</ele>
        <time>2022-01-01T14:16:37Z</time>
      </trkpt>
      <trkpt lat="46.72634" lon="5.95965">
        <ele>632.7</ele>
        <time>2022-01-01T14:16:42Z</time>
      </trkpt>
      <trkpt lat="46.72639" lon="5.95967">
        <ele>631.3</ele>
        <time>2022-01-01T14:16:48Z</time>
      </trkpt>
      <trkpt lat="46.72644" lon="5.95968">
        <ele>629.2</ele>
        <time>2022-01-01T14:16:56Z</time>
      </trkpt>
      <trkpt lat="46.72648" lon="5.95971">
        <ele>627.8</ele>
        <time>2022-01-01T14:17:01Z</time>
      </trkpt>
      <trkpt lat="46.72653" lon="5.95971">
        <ele>626.7</ele>
        <time>2022-01-01T14:17:08Z</time>
      </trkpt>
      <trkpt lat="46.72659" lon="5.95969">
        <ele>626</ele>
        <time>2022-01-01T14:17:15Z</time>
      </trkpt>
      <trkpt lat="46.72663" lon="5.95968">
        <ele>625.4</ele>
        <time>2022-01-01T14:17:19Z</time>
      </trkpt>
      <trkpt lat="46.72668" lon="5.95971">
        <ele>624</ele>
        <time>2022-01-01T14:17:23Z</time>
      </trkpt>
      <trkpt lat="46.72672" lon="5.95974">
        <ele>621</ele>
        <time>2022-01-01T14:17:28Z</time>
      </trkpt>
      <trkpt lat="46.72677" lon="5.95976">
        <ele>618.3</ele>
        <time>2022-01-01T14:17:32Z</time>
      </trkpt>
      <trkpt lat="46.72682" lon="5.95978">
        <ele>615.7</ele>
        <time>2022-01-01T14:17:36Z</time>
      </trkpt>
      <trkpt lat="46.72687" lon="5.95979">
        <ele>611.6</ele>
        <time>2022-01-01T14:17:43Z</time>
      </trkpt>
      <trkpt lat="46.72691" lon="5.95974">
        <ele>609.6</ele>
        <time>2022-01-01T14:17:51Z</time>
      </trkpt>
      <trkpt lat="46.72695" lon="5.95971">
        <ele>609.2</ele>
        <time>2022-01-01T14:17:56Z</time>
      </trkpt>
      <trkpt lat="46.727" lon="5.95972">
        <ele>608.9</ele>
        <time>2022-01-01T14:18:04Z</time>
      </trkpt>
      <trkpt lat="46.72704" lon="5.95971">
        <ele>609.1</ele>
        <time>2022-01-01T14:18:10Z</time>
      </trkpt>
      <trkpt lat="46.7271" lon="5.95971">
        <ele>608.8</ele>
        <time>2022-01-01T14:18:16Z</time>
      </trkpt>
      <trkpt lat="46.72715" lon="5.95971">
        <ele>607.5</ele>
        <time>2022-01-01T14:18:21Z</time>
      </trkpt>
      <trkpt lat="46.7272" lon="5.95973">
        <ele>605.5</ele>
        <time>2022-01-01T14:18:27Z</time>
      </trkpt>
      <trkpt lat="46.72724" lon="5.95974">
        <ele>603.8</ele>
        <time>2022-01-01T14:18:34Z</time>
      </trkpt>
      <trkpt lat="46.72729" lon="5.95975">
        <ele>601.2</ele>
        <time>2022-01-01T14:18:42Z</time>
      </trkpt>
      <trkpt lat="46.72733" lon="5.95977">
        <ele>599.1</ele>
        <time>2022-01-01T14:18:50Z</time>
      </trkpt>
      <trkpt lat="46.72737" lon="5.95981">
        <ele>597.2</ele>
        <time>2022-01-01T14:18:54Z</time>
      </trkpt>
      <trkpt lat="46.72741" lon="5.95985">
        <ele>594.9</ele>
        <time>2022-01-01T14:19:00Z</time>
      </trkpt>
      <trkpt lat="46.72746" lon="5.95988">
        <ele>593.3</ele>
        <time>2022-01-01T14:19:07Z</time>
      </trkpt>
      <trkpt lat="46.72751" lon="5.95987">
        <ele>593.1</ele>
        <time>2022-01-01T14:19:11Z</time>
      </trkpt>
      <trkpt lat="46.72756" lon="5.95989">
        <ele>592.8</ele>
        <time>2022-01-01T14:19:16Z</time>
      </trkpt>
      <trkpt lat="46.72761" lon="5.95991">
        <ele>591.5</ele>
        <time>2022-01-01T14:19:21Z</time>
      </trkpt>
      <trkpt lat="46.72766" lon="5.95993">
        <ele>589.9</ele>
        <time>2022-01-01T14:19:27Z</time>
      </trkpt>
      <trkpt lat="46.72771" lon="5.95993">
        <ele>589.1</ele>
        <time>2022-01-01T14:19:32Z</time>
      </trkpt>
      <trkpt lat="46.72776" lon="5.95991">
        <ele>588.4</ele>
        <time>2022-01-01T14:19:37Z</time>
      </trkpt>
      <trkpt lat="46.72781" lon="5.9599">
        <ele>588.1</ele>
        <time>2022-01-01T14:19:41Z</time>
      </trkpt>
      <trkpt lat="46.72785" lon="5.95986">
        <ele>587.3</ele>
        <time>2022-01-01T14:19:46Z</time>
      </trkpt>
      <trkpt lat="46.72789" lon="5.95981">
        <ele>586.8</ele>
        <time>2022-01-01T14:19:52Z</time>
      </trkpt>
      <trkpt lat="46.72793" lon="5.95978">
        <ele>586.6</ele>
        <time>2022-01-01T14:19:59Z</time>
      </trkpt>
      <trkpt lat="46.72798" lon="5.95982">
        <ele>586.4</ele>
        <time>2022-01-01T14:20:05Z</time>
      </trkpt>
      <trkpt lat="46.72801" lon="5.95987">
        <ele>586.5</ele>
        <time>2022-01-01T14:20:10Z</time>
      </trkpt>
      <trkpt lat="46.72804" lon="5.95994">
        <ele>586.8</ele>
        <time>2022-01-01T14:20:15Z</time>
      </trkpt>
      <trkpt lat="46.72807" lon="5.95998">
        <ele>587.1</ele>
        <time>2022-01-01T14:20:19Z</time>
      </trkpt>
      <trkpt lat="46.72811" lon="5.96002">
        <ele>587.1</ele>
        <time>2022-01-01T14:20:24Z</time>
      </trkpt>
      <trkpt lat="46.72815" lon="5.96007">
        <ele>587</ele>
        <time>2022-01-01T14:20:30Z</time>
      </trkpt>
      <trkpt lat="46.72821" lon="5.9601">
        <ele>586.6</ele>
        <time>2022-01-01T14:20:36Z</time>
      </trkpt>
      <trkpt lat="46.72826" lon="5.96011">
        <ele>586.2</ele>
        <time>2022-01-01T14:20:41Z</time>
      </trkpt>
      <trkpt lat="46.7283" lon="5.96015">
        <ele>585.6</ele>
        <time>2022-01-01T14:20:47Z</time>
      </trkpt>
      <trkpt lat="46.72835" lon="5.96019">
        <ele>585.4</ele>
        <time>2022-01-01T14:20:51Z</time>
      </trkpt>
      <trkpt lat="46.7284" lon="5.9602">
        <ele>585</ele>
        <time>2022-01-01T14:20:55Z</time>
      </trkpt>
      <trkpt lat="46.72844" lon="5.96022">
        <ele>584.1</ele>
        <time>2022-01-01T14:20:59Z</time>
      </trkpt>
      <trkpt lat="46.7284" lon="5.96019">
        <ele>592.6</ele>
        <time>2022-01-01T14:24:39Z</time>
      </trkpt>
    </trkseg>
  </trk>
</gpx>